<?xml version="1.0" encoding="UTF-8" standalone="no" ?>
<gpx xmlns="http://www.topografix.com/GPX/1/1" creator="MapSource 6.11.6" version="1.1" xmlns:xsi="http://www.w3.org/2001/XMLSchema-instance" xsi:schemaLocation="http://www.topografix.com/GPX/1/1 http://www.topografix.com/GPX/1/1/gpx.xsd">

  <metadata>
    <link href="http://www.garmin.com">
      <text>Garmin International</text>
    </link>
    <time>2009-11-07T16:18:28Z</time>
    <bounds maxlat="50.526749" maxlon="6.286163" minlat="50.505233" minlon="6.249690"/>
  </metadata>

  <wpt lat="50.525742" lon="6.256597">
    <ele>490.154175</ele>
    <name>Eses-02-011</name>
    <sym>Waypoint</sym>
    <extensions>
      <gpxx:WaypointExtension xmlns:gpxx="http://www.garmin.com/xmlschemas/GpxExtensions/v3" xmlns:xsi="http://www.w3.org/2001/XMLSchema-instance" xsi:schemaLocation="http://www.garmin.com/xmlschemas/GpxExtensions/v3 http://www.garmin.com/xmlschemas/GpxExtensions/v3/GpxExtensionsv3.xsd">
        <gpxx:DisplayMode>SymbolAndName</gpxx:DisplayMode>
      </gpxx:WaypointExtension>
    </extensions>
  </wpt>

  <wpt lat="50.512812" lon="6.286113">
    <ele>553.120117</ele>
    <name>Knp0411</name>
    <sym>Waypoint</sym>
    <extensions>
      <gpxx:WaypointExtension xmlns:gpxx="http://www.garmin.com/xmlschemas/GpxExtensions/v3" xmlns:xsi="http://www.w3.org/2001/XMLSchema-instance" xsi:schemaLocation="http://www.garmin.com/xmlschemas/GpxExtensions/v3 http://www.garmin.com/xmlschemas/GpxExtensions/v3/GpxExtensionsv3.xsd">
        <gpxx:DisplayMode>SymbolAndName</gpxx:DisplayMode>
      </gpxx:WaypointExtension>
    </extensions>
  </wpt>

  <wpt lat="50.526729" lon="6.256357">
    <ele>503.131836</ele>
    <name>PPerlenbach</name>
    <sym>Waypoint</sym>
    <extensions>
      <gpxx:WaypointExtension xmlns:gpxx="http://www.garmin.com/xmlschemas/GpxExtensions/v3" xmlns:xsi="http://www.w3.org/2001/XMLSchema-instance" xsi:schemaLocation="http://www.garmin.com/xmlschemas/GpxExtensions/v3 http://www.garmin.com/xmlschemas/GpxExtensions/v3/GpxExtensionsv3.xsd">
        <gpxx:DisplayMode>SymbolAndName</gpxx:DisplayMode>
      </gpxx:WaypointExtension>
    </extensions>
  </wpt>

  <trk>
    <name>Narzissenweg 2</name>
    <extensions>
      <gpxx:TrackExtension xmlns:gpxx="http://www.garmin.com/xmlschemas/GpxExtensions/v3" xmlns:xsi="http://www.w3.org/2001/XMLSchema-instance" xsi:schemaLocation="http://www.garmin.com/xmlschemas/GpxExtensions/v3 http://www.garmin.com/xmlschemas/GpxExtensions/v3/GpxExtensionsv3.xsd">
        <gpxx:DisplayColor>White</gpxx:DisplayColor>
      </gpxx:TrackExtension>
    </extensions>
    <trkseg>
      <trkpt lat="50.526638" lon="6.256199">
        <ele>484.642000</ele>
        <time>2009-04-26T17:06:33Z</time>
      </trkpt>
      <trkpt lat="50.526638" lon="6.256199">
        <ele>485.603000</ele>
        <time>2009-04-26T17:06:33Z</time>
      </trkpt>
      <trkpt lat="50.526625" lon="6.256271">
        <ele>483.200000</ele>
        <time>2009-04-26T17:06:38Z</time>
      </trkpt>
      <trkpt lat="50.526616" lon="6.256267">
        <ele>487.526000</ele>
        <time>2009-04-26T17:06:39Z</time>
      </trkpt>
      <trkpt lat="50.526609" lon="6.256260">
        <ele>484.161000</ele>
        <time>2009-04-26T17:06:39Z</time>
      </trkpt>
      <trkpt lat="50.526543" lon="6.256225">
        <ele>483.200000</ele>
        <time>2009-04-26T17:06:47Z</time>
      </trkpt>
      <trkpt lat="50.526463" lon="6.256303">
        <ele>482.719000</ele>
        <time>2009-04-26T17:06:57Z</time>
      </trkpt>
      <trkpt lat="50.526474" lon="6.256235">
        <ele>483.200000</ele>
        <time>2009-04-26T17:07:01Z</time>
      </trkpt>
      <trkpt lat="50.526496" lon="6.256134">
        <ele>482.719000</ele>
        <time>2009-04-26T17:07:09Z</time>
      </trkpt>
      <trkpt lat="50.526491" lon="6.256246">
        <ele>482.239000</ele>
        <time>2009-04-26T17:07:16Z</time>
      </trkpt>
      <trkpt lat="50.526463" lon="6.256242">
        <ele>485.122000</ele>
        <time>2009-04-26T17:07:19Z</time>
      </trkpt>
      <trkpt lat="50.526448" lon="6.256232">
        <ele>482.719000</ele>
        <time>2009-04-26T17:07:21Z</time>
      </trkpt>
      <trkpt lat="50.526437" lon="6.256261">
        <ele>483.200000</ele>
        <time>2009-04-26T17:07:23Z</time>
      </trkpt>
      <trkpt lat="50.526414" lon="6.256227">
        <ele>482.719000</ele>
        <time>2009-04-26T17:07:26Z</time>
      </trkpt>
      <trkpt lat="50.526368" lon="6.256258">
        <ele>481.758000</ele>
        <time>2009-04-26T17:07:32Z</time>
      </trkpt>
      <trkpt lat="50.526274" lon="6.256352">
        <ele>481.758000</ele>
        <time>2009-04-26T17:07:43Z</time>
      </trkpt>
      <trkpt lat="50.526179" lon="6.256449">
        <ele>482.239000</ele>
        <time>2009-04-26T17:07:55Z</time>
      </trkpt>
      <trkpt lat="50.526109" lon="6.256589">
        <ele>482.239000</ele>
        <time>2009-04-26T17:08:07Z</time>
      </trkpt>
      <trkpt lat="50.526015" lon="6.256669">
        <ele>479.835000</ele>
        <time>2009-04-26T17:08:19Z</time>
      </trkpt>
      <trkpt lat="50.525924" lon="6.256718">
        <ele>479.835000</ele>
        <time>2009-04-26T17:08:29Z</time>
      </trkpt>
      <trkpt lat="50.525828" lon="6.256737">
        <ele>479.835000</ele>
        <time>2009-04-26T17:08:39Z</time>
      </trkpt>
      <trkpt lat="50.525686" lon="6.256706">
        <ele>479.835000</ele>
        <time>2009-04-26T17:08:54Z</time>
      </trkpt>
      <trkpt lat="50.525672" lon="6.256714">
        <ele>476.471000</ele>
        <time>2009-04-26T17:08:56Z</time>
      </trkpt>
      <trkpt lat="50.525670" lon="6.256683">
        <ele>482.719000</ele>
        <time>2009-04-26T17:08:58Z</time>
      </trkpt>
      <trkpt lat="50.525729" lon="6.256607">
        <ele>478.393000</ele>
        <time>2009-04-26T17:09:06Z</time>
      </trkpt>
      <trkpt lat="50.525734" lon="6.256603">
        <ele>481.758000</ele>
        <time>2009-04-26T17:09:06Z</time>
      </trkpt>
      <trkpt lat="50.525738" lon="6.256599">
        <ele>481.758000</ele>
        <time>2009-04-26T17:09:07Z</time>
      </trkpt>
      <trkpt lat="50.525747" lon="6.256594">
        <ele>480.316000</ele>
        <time>2009-04-26T17:09:08Z</time>
      </trkpt>
      <trkpt lat="50.525795" lon="6.256507">
        <ele>480.316000</ele>
        <time>2009-04-26T17:09:15Z</time>
      </trkpt>
      <trkpt lat="50.525655" lon="6.256465">
        <ele>480.797000</ele>
        <time>2009-04-26T17:09:30Z</time>
      </trkpt>
      <trkpt lat="50.525567" lon="6.256521">
        <ele>478.874000</ele>
        <time>2009-04-26T17:09:41Z</time>
      </trkpt>
      <trkpt lat="50.525433" lon="6.256513">
        <ele>479.835000</ele>
        <time>2009-04-26T17:09:55Z</time>
      </trkpt>
      <trkpt lat="50.525413" lon="6.256530">
        <ele>479.835000</ele>
        <time>2009-04-26T17:09:57Z</time>
      </trkpt>
      <trkpt lat="50.525364" lon="6.256567">
        <ele>480.316000</ele>
        <time>2009-04-26T17:10:03Z</time>
      </trkpt>
      <trkpt lat="50.525254" lon="6.256662">
        <ele>480.316000</ele>
        <time>2009-04-26T17:10:16Z</time>
      </trkpt>
      <trkpt lat="50.525173" lon="6.256604">
        <ele>480.316000</ele>
        <time>2009-04-26T17:10:25Z</time>
      </trkpt>
      <trkpt lat="50.525167" lon="6.256612">
        <ele>481.277000</ele>
        <time>2009-04-26T17:10:26Z</time>
      </trkpt>
      <trkpt lat="50.525023" lon="6.256471">
        <ele>480.797000</ele>
        <time>2009-04-26T17:10:44Z</time>
      </trkpt>
      <trkpt lat="50.524981" lon="6.256458">
        <ele>481.277000</ele>
        <time>2009-04-26T17:10:49Z</time>
      </trkpt>
      <trkpt lat="50.524857" lon="6.256512">
        <ele>481.277000</ele>
        <time>2009-04-26T17:11:02Z</time>
      </trkpt>
      <trkpt lat="50.524752" lon="6.256497">
        <ele>482.239000</ele>
        <time>2009-04-26T17:11:13Z</time>
      </trkpt>
      <trkpt lat="50.524662" lon="6.256479">
        <ele>483.200000</ele>
        <time>2009-04-26T17:11:23Z</time>
      </trkpt>
      <trkpt lat="50.524430" lon="6.256603">
        <ele>482.719000</ele>
        <time>2009-04-26T17:11:49Z</time>
      </trkpt>
      <trkpt lat="50.524278" lon="6.256682">
        <ele>484.161000</ele>
        <time>2009-04-26T17:12:06Z</time>
      </trkpt>
      <trkpt lat="50.524244" lon="6.256716">
        <ele>483.680000</ele>
        <time>2009-04-26T17:12:10Z</time>
      </trkpt>
      <trkpt lat="50.524206" lon="6.256723">
        <ele>484.161000</ele>
        <time>2009-04-26T17:12:14Z</time>
      </trkpt>
      <trkpt lat="50.524092" lon="6.256708">
        <ele>482.239000</ele>
        <time>2009-04-26T17:12:26Z</time>
      </trkpt>
      <trkpt lat="50.523949" lon="6.256645">
        <ele>482.719000</ele>
        <time>2009-04-26T17:12:42Z</time>
      </trkpt>
      <trkpt lat="50.523909" lon="6.256647">
        <ele>483.680000</ele>
        <time>2009-04-26T17:12:46Z</time>
      </trkpt>
      <trkpt lat="50.523786" lon="6.256469">
        <ele>483.200000</ele>
        <time>2009-04-26T17:13:03Z</time>
      </trkpt>
      <trkpt lat="50.523724" lon="6.256471">
        <ele>483.680000</ele>
        <time>2009-04-26T17:13:10Z</time>
      </trkpt>
      <trkpt lat="50.523594" lon="6.256484">
        <ele>484.161000</ele>
        <time>2009-04-26T17:13:24Z</time>
      </trkpt>
      <trkpt lat="50.523511" lon="6.256556">
        <ele>484.642000</ele>
        <time>2009-04-26T17:13:34Z</time>
      </trkpt>
      <trkpt lat="50.523430" lon="6.256628">
        <ele>485.122000</ele>
        <time>2009-04-26T17:13:43Z</time>
      </trkpt>
      <trkpt lat="50.523350" lon="6.256611">
        <ele>485.603000</ele>
        <time>2009-04-26T17:13:52Z</time>
      </trkpt>
      <trkpt lat="50.523351" lon="6.256572">
        <ele>485.122000</ele>
        <time>2009-04-26T17:13:55Z</time>
      </trkpt>
      <trkpt lat="50.523229" lon="6.256635">
        <ele>484.161000</ele>
        <time>2009-04-26T17:14:08Z</time>
      </trkpt>
      <trkpt lat="50.523135" lon="6.256804">
        <ele>484.161000</ele>
        <time>2009-04-26T17:14:23Z</time>
      </trkpt>
      <trkpt lat="50.523073" lon="6.256995">
        <ele>484.642000</ele>
        <time>2009-04-26T17:14:38Z</time>
      </trkpt>
      <trkpt lat="50.522971" lon="6.257210">
        <ele>485.122000</ele>
        <time>2009-04-26T17:14:56Z</time>
      </trkpt>
      <trkpt lat="50.522844" lon="6.257424">
        <ele>486.084000</ele>
        <time>2009-04-26T17:15:15Z</time>
      </trkpt>
      <trkpt lat="50.522776" lon="6.257475">
        <ele>486.084000</ele>
        <time>2009-04-26T17:15:23Z</time>
      </trkpt>
      <trkpt lat="50.522669" lon="6.257707">
        <ele>487.526000</ele>
        <time>2009-04-26T17:15:42Z</time>
      </trkpt>
      <trkpt lat="50.522656" lon="6.257733">
        <ele>488.487000</ele>
        <time>2009-04-26T17:15:44Z</time>
      </trkpt>
      <trkpt lat="50.522618" lon="6.257798">
        <ele>490.890000</ele>
        <time>2009-04-26T17:15:50Z</time>
      </trkpt>
      <trkpt lat="50.522592" lon="6.257784">
        <ele>488.968000</ele>
        <time>2009-04-26T17:15:53Z</time>
      </trkpt>
      <trkpt lat="50.522515" lon="6.257822">
        <ele>487.045000</ele>
        <time>2009-04-26T17:16:02Z</time>
      </trkpt>
      <trkpt lat="50.522415" lon="6.257959">
        <ele>488.006000</ele>
        <time>2009-04-26T17:16:16Z</time>
      </trkpt>
      <trkpt lat="50.522365" lon="6.257999">
        <ele>489.448000</ele>
        <time>2009-04-26T17:16:22Z</time>
      </trkpt>
      <trkpt lat="50.522355" lon="6.258013">
        <ele>488.487000</ele>
        <time>2009-04-26T17:16:23Z</time>
      </trkpt>
      <trkpt lat="50.522298" lon="6.258068">
        <ele>489.929000</ele>
        <time>2009-04-26T17:16:30Z</time>
      </trkpt>
      <trkpt lat="50.522239" lon="6.258063">
        <ele>489.929000</ele>
        <time>2009-04-26T17:16:36Z</time>
      </trkpt>
      <trkpt lat="50.522155" lon="6.258185">
        <ele>490.410000</ele>
        <time>2009-04-26T17:16:48Z</time>
      </trkpt>
      <trkpt lat="50.522144" lon="6.258173">
        <ele>490.410000</ele>
        <time>2009-04-26T17:16:50Z</time>
      </trkpt>
      <trkpt lat="50.522072" lon="6.258188">
        <ele>489.929000</ele>
        <time>2009-04-26T17:16:57Z</time>
      </trkpt>
      <trkpt lat="50.521921" lon="6.258201">
        <ele>489.929000</ele>
        <time>2009-04-26T17:17:13Z</time>
      </trkpt>
      <trkpt lat="50.521745" lon="6.258209">
        <ele>490.410000</ele>
        <time>2009-04-26T17:17:32Z</time>
      </trkpt>
      <trkpt lat="50.521662" lon="6.258286">
        <ele>491.371000</ele>
        <time>2009-04-26T17:17:42Z</time>
      </trkpt>
      <trkpt lat="50.521566" lon="6.258261">
        <ele>490.890000</ele>
        <time>2009-04-26T17:17:52Z</time>
      </trkpt>
      <trkpt lat="50.521502" lon="6.258205">
        <ele>491.371000</ele>
        <time>2009-04-26T17:18:00Z</time>
      </trkpt>
      <trkpt lat="50.521473" lon="6.258196">
        <ele>491.852000</ele>
        <time>2009-04-26T17:18:03Z</time>
      </trkpt>
      <trkpt lat="50.521390" lon="6.258309">
        <ele>492.332000</ele>
        <time>2009-04-26T17:18:15Z</time>
      </trkpt>
      <trkpt lat="50.521354" lon="6.258356">
        <ele>492.813000</ele>
        <time>2009-04-26T17:18:20Z</time>
      </trkpt>
      <trkpt lat="50.521286" lon="6.258349">
        <ele>493.294000</ele>
        <time>2009-04-26T17:18:27Z</time>
      </trkpt>
      <trkpt lat="50.521193" lon="6.258323">
        <ele>494.736000</ele>
        <time>2009-04-26T17:18:37Z</time>
      </trkpt>
      <trkpt lat="50.521037" lon="6.258131">
        <ele>493.294000</ele>
        <time>2009-04-26T17:18:58Z</time>
      </trkpt>
      <trkpt lat="50.520952" lon="6.258113">
        <ele>492.813000</ele>
        <time>2009-04-26T17:19:07Z</time>
      </trkpt>
      <trkpt lat="50.520898" lon="6.258176">
        <ele>492.332000</ele>
        <time>2009-04-26T17:19:14Z</time>
      </trkpt>
      <trkpt lat="50.520744" lon="6.258328">
        <ele>493.294000</ele>
        <time>2009-04-26T17:19:33Z</time>
      </trkpt>
      <trkpt lat="50.520637" lon="6.258372">
        <ele>495.216000</ele>
        <time>2009-04-26T17:19:45Z</time>
      </trkpt>
      <trkpt lat="50.520591" lon="6.258407">
        <ele>496.178000</ele>
        <time>2009-04-26T17:19:50Z</time>
      </trkpt>
      <trkpt lat="50.520378" lon="6.258385">
        <ele>496.178000</ele>
        <time>2009-04-26T17:20:13Z</time>
      </trkpt>
      <trkpt lat="50.520363" lon="6.258379">
        <ele>496.178000</ele>
        <time>2009-04-26T17:20:14Z</time>
      </trkpt>
      <trkpt lat="50.520205" lon="6.258459">
        <ele>497.139000</ele>
        <time>2009-04-26T17:20:32Z</time>
      </trkpt>
      <trkpt lat="50.520092" lon="6.258491">
        <ele>497.620000</ele>
        <time>2009-04-26T17:20:44Z</time>
      </trkpt>
      <trkpt lat="50.519922" lon="6.258525">
        <ele>498.581000</ele>
        <time>2009-04-26T17:21:02Z</time>
      </trkpt>
      <trkpt lat="50.519787" lon="6.258542">
        <ele>500.023000</ele>
        <time>2009-04-26T17:21:16Z</time>
      </trkpt>
      <trkpt lat="50.519664" lon="6.258563">
        <ele>501.465000</ele>
        <time>2009-04-26T17:21:29Z</time>
      </trkpt>
      <trkpt lat="50.519505" lon="6.258594">
        <ele>501.946000</ele>
        <time>2009-04-26T17:21:46Z</time>
      </trkpt>
      <trkpt lat="50.519459" lon="6.258607">
        <ele>503.868000</ele>
        <time>2009-04-26T17:21:51Z</time>
      </trkpt>
      <trkpt lat="50.519442" lon="6.258623">
        <ele>503.387000</ele>
        <time>2009-04-26T17:21:53Z</time>
      </trkpt>
      <trkpt lat="50.519381" lon="6.258651">
        <ele>503.387000</ele>
        <time>2009-04-26T17:22:00Z</time>
      </trkpt>
      <trkpt lat="50.519281" lon="6.258729">
        <ele>504.829000</ele>
        <time>2009-04-26T17:22:12Z</time>
      </trkpt>
      <trkpt lat="50.519170" lon="6.258828">
        <ele>504.829000</ele>
        <time>2009-04-26T17:22:25Z</time>
      </trkpt>
      <trkpt lat="50.519111" lon="6.258934">
        <ele>505.791000</ele>
        <time>2009-04-26T17:22:35Z</time>
      </trkpt>
      <trkpt lat="50.519057" lon="6.259017">
        <ele>505.791000</ele>
        <time>2009-04-26T17:22:43Z</time>
      </trkpt>
      <trkpt lat="50.518990" lon="6.259227">
        <ele>506.752000</ele>
        <time>2009-04-26T17:22:58Z</time>
      </trkpt>
      <trkpt lat="50.518937" lon="6.259505">
        <ele>507.233000</ele>
        <time>2009-04-26T17:23:18Z</time>
      </trkpt>
      <trkpt lat="50.518874" lon="6.259741">
        <ele>508.675000</ele>
        <time>2009-04-26T17:23:35Z</time>
      </trkpt>
      <trkpt lat="50.518896" lon="6.259959">
        <ele>508.675000</ele>
        <time>2009-04-26T17:23:50Z</time>
      </trkpt>
      <trkpt lat="50.518941" lon="6.260173">
        <ele>510.117000</ele>
        <time>2009-04-26T17:24:05Z</time>
      </trkpt>
      <trkpt lat="50.519091" lon="6.260291">
        <ele>511.559000</ele>
        <time>2009-04-26T17:24:22Z</time>
      </trkpt>
      <trkpt lat="50.519190" lon="6.260436">
        <ele>512.039000</ele>
        <time>2009-04-26T17:24:37Z</time>
      </trkpt>
      <trkpt lat="50.519241" lon="6.260532">
        <ele>513.001000</ele>
        <time>2009-04-26T17:24:45Z</time>
      </trkpt>
      <trkpt lat="50.519274" lon="6.260778">
        <ele>513.001000</ele>
        <time>2009-04-26T17:25:02Z</time>
      </trkpt>
      <trkpt lat="50.519268" lon="6.260955">
        <ele>513.962000</ele>
        <time>2009-04-26T17:25:14Z</time>
      </trkpt>
      <trkpt lat="50.519284" lon="6.261042">
        <ele>513.962000</ele>
        <time>2009-04-26T17:25:20Z</time>
      </trkpt>
      <trkpt lat="50.519288" lon="6.261111">
        <ele>514.443000</ele>
        <time>2009-04-26T17:25:25Z</time>
      </trkpt>
      <trkpt lat="50.519314" lon="6.261301">
        <ele>514.443000</ele>
        <time>2009-04-26T17:25:38Z</time>
      </trkpt>
      <trkpt lat="50.519300" lon="6.261539">
        <ele>512.520000</ele>
        <time>2009-04-26T17:25:54Z</time>
      </trkpt>
      <trkpt lat="50.519271" lon="6.261629">
        <ele>512.520000</ele>
        <time>2009-04-26T17:26:00Z</time>
      </trkpt>
      <trkpt lat="50.519241" lon="6.261678">
        <ele>512.520000</ele>
        <time>2009-04-26T17:26:05Z</time>
      </trkpt>
      <trkpt lat="50.519142" lon="6.261905">
        <ele>513.481000</ele>
        <time>2009-04-26T17:26:23Z</time>
      </trkpt>
      <trkpt lat="50.519094" lon="6.262009">
        <ele>513.001000</ele>
        <time>2009-04-26T17:26:32Z</time>
      </trkpt>
      <trkpt lat="50.519046" lon="6.262191">
        <ele>513.001000</ele>
        <time>2009-04-26T17:26:45Z</time>
      </trkpt>
      <trkpt lat="50.519024" lon="6.262366">
        <ele>513.001000</ele>
        <time>2009-04-26T17:26:57Z</time>
      </trkpt>
      <trkpt lat="50.518926" lon="6.262577">
        <ele>513.962000</ele>
        <time>2009-04-26T17:27:15Z</time>
      </trkpt>
      <trkpt lat="50.518885" lon="6.262651">
        <ele>513.962000</ele>
        <time>2009-04-26T17:27:21Z</time>
      </trkpt>
      <trkpt lat="50.518830" lon="6.262836">
        <ele>514.443000</ele>
        <time>2009-04-26T17:27:35Z</time>
      </trkpt>
      <trkpt lat="50.518764" lon="6.262935">
        <ele>514.923000</ele>
        <time>2009-04-26T17:27:45Z</time>
      </trkpt>
      <trkpt lat="50.518679" lon="6.263109">
        <ele>514.923000</ele>
        <time>2009-04-26T17:27:59Z</time>
      </trkpt>
      <trkpt lat="50.518643" lon="6.263213">
        <ele>515.404000</ele>
        <time>2009-04-26T17:28:07Z</time>
      </trkpt>
      <trkpt lat="50.518618" lon="6.263393">
        <ele>515.404000</ele>
        <time>2009-04-26T17:28:20Z</time>
      </trkpt>
      <trkpt lat="50.518541" lon="6.263708">
        <ele>515.404000</ele>
        <time>2009-04-26T17:28:42Z</time>
      </trkpt>
      <trkpt lat="50.518545" lon="6.263949">
        <ele>515.404000</ele>
        <time>2009-04-26T17:28:58Z</time>
      </trkpt>
      <trkpt lat="50.518485" lon="6.264181">
        <ele>515.404000</ele>
        <time>2009-04-26T17:29:15Z</time>
      </trkpt>
      <trkpt lat="50.518457" lon="6.264435">
        <ele>515.885000</ele>
        <time>2009-04-26T17:29:32Z</time>
      </trkpt>
      <trkpt lat="50.518387" lon="6.264565">
        <ele>515.885000</ele>
        <time>2009-04-26T17:29:44Z</time>
      </trkpt>
      <trkpt lat="50.518344" lon="6.264695">
        <ele>516.846000</ele>
        <time>2009-04-26T17:29:54Z</time>
      </trkpt>
      <trkpt lat="50.518323" lon="6.264876">
        <ele>517.327000</ele>
        <time>2009-04-26T17:30:06Z</time>
      </trkpt>
      <trkpt lat="50.518329" lon="6.264961">
        <ele>518.288000</ele>
        <time>2009-04-26T17:30:12Z</time>
      </trkpt>
      <trkpt lat="50.518369" lon="6.265124">
        <ele>517.807000</ele>
        <time>2009-04-26T17:30:23Z</time>
      </trkpt>
      <trkpt lat="50.518386" lon="6.265205">
        <ele>518.288000</ele>
        <time>2009-04-26T17:30:29Z</time>
      </trkpt>
      <trkpt lat="50.518391" lon="6.265408">
        <ele>520.211000</ele>
        <time>2009-04-26T17:30:43Z</time>
      </trkpt>
      <trkpt lat="50.518445" lon="6.265590">
        <ele>522.133000</ele>
        <time>2009-04-26T17:30:56Z</time>
      </trkpt>
      <trkpt lat="50.518455" lon="6.265778">
        <ele>522.133000</ele>
        <time>2009-04-26T17:31:09Z</time>
      </trkpt>
      <trkpt lat="50.518453" lon="6.265795">
        <ele>522.133000</ele>
        <time>2009-04-26T17:31:10Z</time>
      </trkpt>
      <trkpt lat="50.518532" lon="6.266031">
        <ele>523.575000</ele>
        <time>2009-04-26T17:31:28Z</time>
      </trkpt>
      <trkpt lat="50.518559" lon="6.266197">
        <ele>523.575000</ele>
        <time>2009-04-26T17:31:39Z</time>
      </trkpt>
      <trkpt lat="50.518558" lon="6.266240">
        <ele>523.575000</ele>
        <time>2009-04-26T17:31:42Z</time>
      </trkpt>
      <trkpt lat="50.518535" lon="6.266397">
        <ele>523.575000</ele>
        <time>2009-04-26T17:31:53Z</time>
      </trkpt>
      <trkpt lat="50.518500" lon="6.266620">
        <ele>524.056000</ele>
        <time>2009-04-26T17:32:08Z</time>
      </trkpt>
      <trkpt lat="50.518601" lon="6.266923">
        <ele>524.536000</ele>
        <time>2009-04-26T17:32:31Z</time>
      </trkpt>
      <trkpt lat="50.518642" lon="6.267098">
        <ele>524.056000</ele>
        <time>2009-04-26T17:32:44Z</time>
      </trkpt>
      <trkpt lat="50.518648" lon="6.267112">
        <ele>524.056000</ele>
        <time>2009-04-26T17:32:45Z</time>
      </trkpt>
      <trkpt lat="50.518663" lon="6.267282">
        <ele>524.536000</ele>
        <time>2009-04-26T17:32:56Z</time>
      </trkpt>
      <trkpt lat="50.518648" lon="6.267467">
        <ele>524.536000</ele>
        <time>2009-04-26T17:33:09Z</time>
      </trkpt>
      <trkpt lat="50.518645" lon="6.267481">
        <ele>524.536000</ele>
        <time>2009-04-26T17:33:10Z</time>
      </trkpt>
      <trkpt lat="50.518669" lon="6.267639">
        <ele>524.536000</ele>
        <time>2009-04-26T17:33:21Z</time>
      </trkpt>
      <trkpt lat="50.518726" lon="6.267791">
        <ele>525.017000</ele>
        <time>2009-04-26T17:33:33Z</time>
      </trkpt>
      <trkpt lat="50.518883" lon="6.268103">
        <ele>525.017000</ele>
        <time>2009-04-26T17:33:59Z</time>
      </trkpt>
      <trkpt lat="50.518966" lon="6.268306">
        <ele>526.459000</ele>
        <time>2009-04-26T17:34:16Z</time>
      </trkpt>
      <trkpt lat="50.518976" lon="6.268322">
        <ele>525.978000</ele>
        <time>2009-04-26T17:34:17Z</time>
      </trkpt>
      <trkpt lat="50.519037" lon="6.268554">
        <ele>527.420000</ele>
        <time>2009-04-26T17:34:34Z</time>
      </trkpt>
      <trkpt lat="50.519090" lon="6.268764">
        <ele>527.901000</ele>
        <time>2009-04-26T17:34:49Z</time>
      </trkpt>
      <trkpt lat="50.519120" lon="6.268953">
        <ele>528.863000</ele>
        <time>2009-04-26T17:35:02Z</time>
      </trkpt>
      <trkpt lat="50.519167" lon="6.269163">
        <ele>529.824000</ele>
        <time>2009-04-26T17:35:17Z</time>
      </trkpt>
      <trkpt lat="50.519177" lon="6.269368">
        <ele>530.785000</ele>
        <time>2009-04-26T17:35:31Z</time>
      </trkpt>
      <trkpt lat="50.519198" lon="6.269606">
        <ele>531.746000</ele>
        <time>2009-04-26T17:35:47Z</time>
      </trkpt>
      <trkpt lat="50.519231" lon="6.269792">
        <ele>532.708000</ele>
        <time>2009-04-26T17:36:00Z</time>
      </trkpt>
      <trkpt lat="50.519244" lon="6.270004">
        <ele>533.669000</ele>
        <time>2009-04-26T17:36:14Z</time>
      </trkpt>
      <trkpt lat="50.519233" lon="6.270161">
        <ele>534.630000</ele>
        <time>2009-04-26T17:36:25Z</time>
      </trkpt>
      <trkpt lat="50.519210" lon="6.270344">
        <ele>536.072000</ele>
        <time>2009-04-26T17:36:37Z</time>
      </trkpt>
      <trkpt lat="50.519202" lon="6.270536">
        <ele>537.034000</ele>
        <time>2009-04-26T17:36:50Z</time>
      </trkpt>
      <trkpt lat="50.519165" lon="6.270714">
        <ele>537.995000</ele>
        <time>2009-04-26T17:37:03Z</time>
      </trkpt>
      <trkpt lat="50.519148" lon="6.270860">
        <ele>538.956000</ele>
        <time>2009-04-26T17:37:13Z</time>
      </trkpt>
      <trkpt lat="50.519109" lon="6.270971">
        <ele>539.437000</ele>
        <time>2009-04-26T17:37:21Z</time>
      </trkpt>
      <trkpt lat="50.519065" lon="6.271125">
        <ele>539.918000</ele>
        <time>2009-04-26T17:37:32Z</time>
      </trkpt>
      <trkpt lat="50.519165" lon="6.271214">
        <ele>540.398000</ele>
        <time>2009-04-26T17:37:44Z</time>
      </trkpt>
      <trkpt lat="50.519281" lon="6.271308">
        <ele>541.359000</ele>
        <time>2009-04-26T17:37:58Z</time>
      </trkpt>
      <trkpt lat="50.519426" lon="6.271400">
        <ele>541.840000</ele>
        <time>2009-04-26T17:38:15Z</time>
      </trkpt>
      <trkpt lat="50.519540" lon="6.271461">
        <ele>543.282000</ele>
        <time>2009-04-26T17:38:27Z</time>
      </trkpt>
      <trkpt lat="50.519564" lon="6.271499">
        <ele>542.802000</ele>
        <time>2009-04-26T17:38:31Z</time>
      </trkpt>
      <trkpt lat="50.519602" lon="6.271580">
        <ele>542.802000</ele>
        <time>2009-04-26T17:38:38Z</time>
      </trkpt>
      <trkpt lat="50.519636" lon="6.271662">
        <ele>540.879000</ele>
        <time>2009-04-26T17:38:44Z</time>
      </trkpt>
      <trkpt lat="50.519671" lon="6.271781">
        <ele>541.840000</ele>
        <time>2009-04-26T17:38:53Z</time>
      </trkpt>
      <trkpt lat="50.519691" lon="6.271826">
        <ele>540.398000</ele>
        <time>2009-04-26T17:38:57Z</time>
      </trkpt>
      <trkpt lat="50.519777" lon="6.271935">
        <ele>538.476000</ele>
        <time>2009-04-26T17:39:08Z</time>
      </trkpt>
      <trkpt lat="50.519786" lon="6.271948">
        <ele>538.476000</ele>
        <time>2009-04-26T17:39:10Z</time>
      </trkpt>
      <trkpt lat="50.519964" lon="6.272127">
        <ele>537.034000</ele>
        <time>2009-04-26T17:39:32Z</time>
      </trkpt>
      <trkpt lat="50.519974" lon="6.272270">
        <ele>536.072000</ele>
        <time>2009-04-26T17:39:42Z</time>
      </trkpt>
      <trkpt lat="50.519840" lon="6.272275">
        <ele>533.669000</ele>
        <time>2009-04-26T17:39:56Z</time>
      </trkpt>
      <trkpt lat="50.519648" lon="6.272237">
        <ele>530.785000</ele>
        <time>2009-04-26T17:40:16Z</time>
      </trkpt>
      <trkpt lat="50.519473" lon="6.272185">
        <ele>529.343000</ele>
        <time>2009-04-26T17:40:35Z</time>
      </trkpt>
      <trkpt lat="50.519279" lon="6.272193">
        <ele>527.420000</ele>
        <time>2009-04-26T17:40:55Z</time>
      </trkpt>
      <trkpt lat="50.519080" lon="6.272199">
        <ele>525.498000</ele>
        <time>2009-04-26T17:41:16Z</time>
      </trkpt>
      <trkpt lat="50.518918" lon="6.272188">
        <ele>525.017000</ele>
        <time>2009-04-26T17:41:33Z</time>
      </trkpt>
      <trkpt lat="50.518824" lon="6.272173">
        <ele>524.536000</ele>
        <time>2009-04-26T17:41:43Z</time>
      </trkpt>
      <trkpt lat="50.518773" lon="6.272156">
        <ele>525.498000</ele>
        <time>2009-04-26T17:41:49Z</time>
      </trkpt>
      <trkpt lat="50.518705" lon="6.272161">
        <ele>524.536000</ele>
        <time>2009-04-26T17:41:56Z</time>
      </trkpt>
      <trkpt lat="50.518685" lon="6.272174">
        <ele>524.056000</ele>
        <time>2009-04-26T17:41:58Z</time>
      </trkpt>
      <trkpt lat="50.518638" lon="6.272303">
        <ele>524.056000</ele>
        <time>2009-04-26T17:42:08Z</time>
      </trkpt>
      <trkpt lat="50.518695" lon="6.272464">
        <ele>524.536000</ele>
        <time>2009-04-26T17:42:21Z</time>
      </trkpt>
      <trkpt lat="50.518738" lon="6.272543">
        <ele>523.095000</ele>
        <time>2009-04-26T17:42:28Z</time>
      </trkpt>
      <trkpt lat="50.518761" lon="6.272558">
        <ele>523.095000</ele>
        <time>2009-04-26T17:42:30Z</time>
      </trkpt>
      <trkpt lat="50.518783" lon="6.272570">
        <ele>523.095000</ele>
        <time>2009-04-26T17:42:33Z</time>
      </trkpt>
      <trkpt lat="50.518793" lon="6.272582">
        <ele>523.095000</ele>
        <time>2009-04-26T17:42:34Z</time>
      </trkpt>
      <trkpt lat="50.518807" lon="6.272586">
        <ele>523.095000</ele>
        <time>2009-04-26T17:42:35Z</time>
      </trkpt>
      <trkpt lat="50.518803" lon="6.272588">
        <ele>525.017000</ele>
        <time>2009-04-26T17:42:36Z</time>
      </trkpt>
      <trkpt lat="50.518757" lon="6.272611">
        <ele>525.498000</ele>
        <time>2009-04-26T17:42:41Z</time>
      </trkpt>
      <trkpt lat="50.518740" lon="6.272547">
        <ele>525.498000</ele>
        <time>2009-04-26T17:42:46Z</time>
      </trkpt>
      <trkpt lat="50.518755" lon="6.272612">
        <ele>525.017000</ele>
        <time>2009-04-26T17:42:50Z</time>
      </trkpt>
      <trkpt lat="50.518720" lon="6.272709">
        <ele>525.017000</ele>
        <time>2009-04-26T17:42:58Z</time>
      </trkpt>
      <trkpt lat="50.518718" lon="6.272635">
        <ele>524.536000</ele>
        <time>2009-04-26T17:43:03Z</time>
      </trkpt>
      <trkpt lat="50.518724" lon="6.272308">
        <ele>524.536000</ele>
        <time>2009-04-26T17:43:25Z</time>
      </trkpt>
      <trkpt lat="50.518706" lon="6.272169">
        <ele>524.056000</ele>
        <time>2009-04-26T17:43:34Z</time>
      </trkpt>
      <trkpt lat="50.518589" lon="6.272106">
        <ele>525.017000</ele>
        <time>2009-04-26T17:43:47Z</time>
      </trkpt>
      <trkpt lat="50.518513" lon="6.272023">
        <ele>524.536000</ele>
        <time>2009-04-26T17:43:57Z</time>
      </trkpt>
      <trkpt lat="50.518404" lon="6.271770">
        <ele>523.575000</ele>
        <time>2009-04-26T17:44:17Z</time>
      </trkpt>
      <trkpt lat="50.518352" lon="6.271535">
        <ele>523.575000</ele>
        <time>2009-04-26T17:44:34Z</time>
      </trkpt>
      <trkpt lat="50.518306" lon="6.271403">
        <ele>524.056000</ele>
        <time>2009-04-26T17:44:44Z</time>
      </trkpt>
      <trkpt lat="50.518256" lon="6.271387">
        <ele>525.498000</ele>
        <time>2009-04-26T17:44:50Z</time>
      </trkpt>
      <trkpt lat="50.518222" lon="6.271461">
        <ele>525.978000</ele>
        <time>2009-04-26T17:44:56Z</time>
      </trkpt>
      <trkpt lat="50.518137" lon="6.271681">
        <ele>527.420000</ele>
        <time>2009-04-26T17:45:13Z</time>
      </trkpt>
      <trkpt lat="50.518074" lon="6.271850">
        <ele>527.420000</ele>
        <time>2009-04-26T17:45:26Z</time>
      </trkpt>
      <trkpt lat="50.518058" lon="6.272103">
        <ele>528.382000</ele>
        <time>2009-04-26T17:45:43Z</time>
      </trkpt>
      <trkpt lat="50.518023" lon="6.272326">
        <ele>530.304000</ele>
        <time>2009-04-26T17:45:59Z</time>
      </trkpt>
      <trkpt lat="50.518014" lon="6.272573">
        <ele>533.669000</ele>
        <time>2009-04-26T17:46:15Z</time>
      </trkpt>
      <trkpt lat="50.517934" lon="6.272797">
        <ele>535.111000</ele>
        <time>2009-04-26T17:46:32Z</time>
      </trkpt>
      <trkpt lat="50.517852" lon="6.273089">
        <ele>537.514000</ele>
        <time>2009-04-26T17:46:54Z</time>
      </trkpt>
      <trkpt lat="50.517725" lon="6.273361">
        <ele>539.918000</ele>
        <time>2009-04-26T17:47:16Z</time>
      </trkpt>
      <trkpt lat="50.517536" lon="6.273608">
        <ele>541.359000</ele>
        <time>2009-04-26T17:47:42Z</time>
      </trkpt>
      <trkpt lat="50.517374" lon="6.273879">
        <ele>541.840000</ele>
        <time>2009-04-26T17:48:07Z</time>
      </trkpt>
      <trkpt lat="50.517369" lon="6.273914">
        <ele>541.359000</ele>
        <time>2009-04-26T17:48:10Z</time>
      </trkpt>
      <trkpt lat="50.517358" lon="6.273915">
        <ele>540.879000</ele>
        <time>2009-04-26T17:48:11Z</time>
      </trkpt>
      <trkpt lat="50.517336" lon="6.274059">
        <ele>540.398000</ele>
        <time>2009-04-26T17:48:21Z</time>
      </trkpt>
      <trkpt lat="50.517398" lon="6.274405">
        <ele>539.918000</ele>
        <time>2009-04-26T17:48:45Z</time>
      </trkpt>
      <trkpt lat="50.517473" lon="6.274721">
        <ele>538.956000</ele>
        <time>2009-04-26T17:49:07Z</time>
      </trkpt>
      <trkpt lat="50.517499" lon="6.274861">
        <ele>536.553000</ele>
        <time>2009-04-26T17:49:17Z</time>
      </trkpt>
      <trkpt lat="50.517489" lon="6.275186">
        <ele>536.553000</ele>
        <time>2009-04-26T17:49:39Z</time>
      </trkpt>
      <trkpt lat="50.517417" lon="6.275576">
        <ele>537.034000</ele>
        <time>2009-04-26T17:50:06Z</time>
      </trkpt>
      <trkpt lat="50.517367" lon="6.275987">
        <ele>537.514000</ele>
        <time>2009-04-26T17:50:34Z</time>
      </trkpt>
      <trkpt lat="50.517332" lon="6.276525">
        <ele>538.956000</ele>
        <time>2009-04-26T17:51:11Z</time>
      </trkpt>
      <trkpt lat="50.517325" lon="6.276903">
        <ele>539.437000</ele>
        <time>2009-04-26T17:51:36Z</time>
      </trkpt>
      <trkpt lat="50.517314" lon="6.277212">
        <ele>539.918000</ele>
        <time>2009-04-26T17:51:57Z</time>
      </trkpt>
      <trkpt lat="50.517290" lon="6.277545">
        <ele>540.398000</ele>
        <time>2009-04-26T17:52:19Z</time>
      </trkpt>
      <trkpt lat="50.517223" lon="6.277923">
        <ele>541.359000</ele>
        <time>2009-04-26T17:52:45Z</time>
      </trkpt>
      <trkpt lat="50.517163" lon="6.278273">
        <ele>541.840000</ele>
        <time>2009-04-26T17:53:10Z</time>
      </trkpt>
      <trkpt lat="50.517122" lon="6.278534">
        <ele>541.359000</ele>
        <time>2009-04-26T17:53:28Z</time>
      </trkpt>
      <trkpt lat="50.517047" lon="6.278790">
        <ele>541.840000</ele>
        <time>2009-04-26T17:53:47Z</time>
      </trkpt>
      <trkpt lat="50.516960" lon="6.279002">
        <ele>542.802000</ele>
        <time>2009-04-26T17:54:04Z</time>
      </trkpt>
      <trkpt lat="50.516834" lon="6.279214">
        <ele>542.802000</ele>
        <time>2009-04-26T17:54:23Z</time>
      </trkpt>
      <trkpt lat="50.516706" lon="6.279395">
        <ele>542.802000</ele>
        <time>2009-04-26T17:54:41Z</time>
      </trkpt>
      <trkpt lat="50.516576" lon="6.279607">
        <ele>544.244000</ele>
        <time>2009-04-26T17:55:01Z</time>
      </trkpt>
      <trkpt lat="50.516470" lon="6.279805">
        <ele>544.724000</ele>
        <time>2009-04-26T17:55:18Z</time>
      </trkpt>
      <trkpt lat="50.516330" lon="6.280013">
        <ele>545.686000</ele>
        <time>2009-04-26T17:55:38Z</time>
      </trkpt>
      <trkpt lat="50.516257" lon="6.280126">
        <ele>546.166000</ele>
        <time>2009-04-26T17:55:49Z</time>
      </trkpt>
      <trkpt lat="50.516214" lon="6.280209">
        <ele>546.647000</ele>
        <time>2009-04-26T17:55:56Z</time>
      </trkpt>
      <trkpt lat="50.516089" lon="6.280447">
        <ele>548.089000</ele>
        <time>2009-04-26T17:56:17Z</time>
      </trkpt>
      <trkpt lat="50.515947" lon="6.280697">
        <ele>550.011000</ele>
        <time>2009-04-26T17:56:40Z</time>
      </trkpt>
      <trkpt lat="50.515811" lon="6.280993">
        <ele>552.895000</ele>
        <time>2009-04-26T17:57:04Z</time>
      </trkpt>
      <trkpt lat="50.515737" lon="6.281106">
        <ele>552.895000</ele>
        <time>2009-04-26T17:57:15Z</time>
      </trkpt>
      <trkpt lat="50.515620" lon="6.281305">
        <ele>554.337000</ele>
        <time>2009-04-26T17:57:33Z</time>
      </trkpt>
      <trkpt lat="50.515533" lon="6.281569">
        <ele>554.818000</ele>
        <time>2009-04-26T17:57:53Z</time>
      </trkpt>
      <trkpt lat="50.515460" lon="6.281898">
        <ele>554.818000</ele>
        <time>2009-04-26T17:58:16Z</time>
      </trkpt>
      <trkpt lat="50.515424" lon="6.282022">
        <ele>554.818000</ele>
        <time>2009-04-26T17:58:26Z</time>
      </trkpt>
      <trkpt lat="50.515360" lon="6.282216">
        <ele>554.818000</ele>
        <time>2009-04-26T17:58:40Z</time>
      </trkpt>
      <trkpt lat="50.515335" lon="6.282286">
        <ele>554.818000</ele>
        <time>2009-04-26T17:58:46Z</time>
      </trkpt>
      <trkpt lat="50.515247" lon="6.282596">
        <ele>555.299000</ele>
        <time>2009-04-26T17:59:08Z</time>
      </trkpt>
      <trkpt lat="50.515203" lon="6.282935">
        <ele>555.299000</ele>
        <time>2009-04-26T17:59:32Z</time>
      </trkpt>
      <trkpt lat="50.515196" lon="6.283265">
        <ele>553.857000</ele>
        <time>2009-04-26T17:59:54Z</time>
      </trkpt>
      <trkpt lat="50.515227" lon="6.283521">
        <ele>551.934000</ele>
        <time>2009-04-26T18:00:11Z</time>
      </trkpt>
      <trkpt lat="50.515326" lon="6.283827">
        <ele>550.011000</ele>
        <time>2009-04-26T18:00:34Z</time>
      </trkpt>
      <trkpt lat="50.515364" lon="6.284140">
        <ele>548.089000</ele>
        <time>2009-04-26T18:00:56Z</time>
      </trkpt>
      <trkpt lat="50.515300" lon="6.284498">
        <ele>548.089000</ele>
        <time>2009-04-26T18:01:20Z</time>
      </trkpt>
      <trkpt lat="50.515219" lon="6.284809">
        <ele>548.089000</ele>
        <time>2009-04-26T18:01:43Z</time>
      </trkpt>
      <trkpt lat="50.515139" lon="6.285141">
        <ele>549.050000</ele>
        <time>2009-04-26T18:02:07Z</time>
      </trkpt>
      <trkpt lat="50.515059" lon="6.285421">
        <ele>548.569000</ele>
        <time>2009-04-26T18:02:27Z</time>
      </trkpt>
      <trkpt lat="50.514907" lon="6.285756">
        <ele>548.089000</ele>
        <time>2009-04-26T18:02:55Z</time>
      </trkpt>
      <trkpt lat="50.514724" lon="6.285908">
        <ele>547.608000</ele>
        <time>2009-04-26T18:03:17Z</time>
      </trkpt>
      <trkpt lat="50.514550" lon="6.285908">
        <ele>547.608000</ele>
        <time>2009-04-26T18:03:35Z</time>
      </trkpt>
      <trkpt lat="50.514369" lon="6.285833">
        <ele>548.569000</ele>
        <time>2009-04-26T18:03:55Z</time>
      </trkpt>
      <trkpt lat="50.514225" lon="6.285744">
        <ele>549.050000</ele>
        <time>2009-04-26T18:04:11Z</time>
      </trkpt>
      <trkpt lat="50.514110" lon="6.285668">
        <ele>549.531000</ele>
        <time>2009-04-26T18:04:24Z</time>
      </trkpt>
      <trkpt lat="50.513972" lon="6.285581">
        <ele>550.011000</ele>
        <time>2009-04-26T18:04:40Z</time>
      </trkpt>
      <trkpt lat="50.513841" lon="6.285506">
        <ele>550.973000</ele>
        <time>2009-04-26T18:04:55Z</time>
      </trkpt>
      <trkpt lat="50.513678" lon="6.285411">
        <ele>550.973000</ele>
        <time>2009-04-26T18:05:13Z</time>
      </trkpt>
      <trkpt lat="50.513615" lon="6.285411">
        <ele>550.492000</ele>
        <time>2009-04-26T18:05:20Z</time>
      </trkpt>
      <trkpt lat="50.513626" lon="6.285473">
        <ele>550.492000</ele>
        <time>2009-04-26T18:05:24Z</time>
      </trkpt>
      <trkpt lat="50.513610" lon="6.285415">
        <ele>550.973000</ele>
        <time>2009-04-26T18:05:28Z</time>
      </trkpt>
      <trkpt lat="50.513543" lon="6.285334">
        <ele>550.973000</ele>
        <time>2009-04-26T18:05:37Z</time>
      </trkpt>
      <trkpt lat="50.513409" lon="6.285257">
        <ele>551.453000</ele>
        <time>2009-04-26T18:05:52Z</time>
      </trkpt>
      <trkpt lat="50.513249" lon="6.285311">
        <ele>551.934000</ele>
        <time>2009-04-26T18:06:09Z</time>
      </trkpt>
      <trkpt lat="50.513118" lon="6.285558">
        <ele>550.492000</ele>
        <time>2009-04-26T18:06:31Z</time>
      </trkpt>
      <trkpt lat="50.513007" lon="6.285866">
        <ele>550.492000</ele>
        <time>2009-04-26T18:06:55Z</time>
      </trkpt>
      <trkpt lat="50.512888" lon="6.286065">
        <ele>551.453000</ele>
        <time>2009-04-26T18:07:13Z</time>
      </trkpt>
      <trkpt lat="50.512830" lon="6.286163">
        <ele>551.934000</ele>
        <time>2009-04-26T18:07:22Z</time>
      </trkpt>
      <trkpt lat="50.512811" lon="6.286080">
        <ele>553.376000</ele>
        <time>2009-04-26T18:07:28Z</time>
      </trkpt>
      <trkpt lat="50.512813" lon="6.286081">
        <ele>553.376000</ele>
        <time>2009-04-26T18:07:28Z</time>
      </trkpt>
      <trkpt lat="50.512820" lon="6.286111">
        <ele>553.857000</ele>
        <time>2009-04-26T18:07:30Z</time>
      </trkpt>
      <trkpt lat="50.512819" lon="6.286111">
        <ele>551.453000</ele>
        <time>2009-04-26T18:07:30Z</time>
      </trkpt>
      <trkpt lat="50.512818" lon="6.286111">
        <ele>553.376000</ele>
        <time>2009-04-26T18:07:30Z</time>
      </trkpt>
      <trkpt lat="50.512764" lon="6.286061">
        <ele>552.895000</ele>
        <time>2009-04-26T18:07:37Z</time>
      </trkpt>
      <trkpt lat="50.512784" lon="6.286076">
        <ele>554.337000</ele>
        <time>2009-04-26T18:07:39Z</time>
      </trkpt>
      <trkpt lat="50.512775" lon="6.286067">
        <ele>552.415000</ele>
        <time>2009-04-26T18:07:41Z</time>
      </trkpt>
      <trkpt lat="50.512622" lon="6.285858">
        <ele>554.337000</ele>
        <time>2009-04-26T18:08:02Z</time>
      </trkpt>
      <trkpt lat="50.512517" lon="6.285765">
        <ele>556.260000</ele>
        <time>2009-04-26T18:08:15Z</time>
      </trkpt>
      <trkpt lat="50.512406" lon="6.285660">
        <ele>556.260000</ele>
        <time>2009-04-26T18:08:28Z</time>
      </trkpt>
      <trkpt lat="50.512252" lon="6.285471">
        <ele>557.221000</ele>
        <time>2009-04-26T18:08:49Z</time>
      </trkpt>
      <trkpt lat="50.512163" lon="6.285306">
        <ele>558.183000</ele>
        <time>2009-04-26T18:09:03Z</time>
      </trkpt>
      <trkpt lat="50.512021" lon="6.285142">
        <ele>558.663000</ele>
        <time>2009-04-26T18:09:22Z</time>
      </trkpt>
      <trkpt lat="50.511923" lon="6.284992">
        <ele>558.663000</ele>
        <time>2009-04-26T18:09:36Z</time>
      </trkpt>
      <trkpt lat="50.511860" lon="6.284713">
        <ele>558.663000</ele>
        <time>2009-04-26T18:09:56Z</time>
      </trkpt>
      <trkpt lat="50.511751" lon="6.284287">
        <ele>561.067000</ele>
        <time>2009-04-26T18:10:27Z</time>
      </trkpt>
      <trkpt lat="50.511701" lon="6.284087">
        <ele>562.509000</ele>
        <time>2009-04-26T18:10:41Z</time>
      </trkpt>
      <trkpt lat="50.511636" lon="6.283793">
        <ele>563.470000</ele>
        <time>2009-04-26T18:11:02Z</time>
      </trkpt>
      <trkpt lat="50.511572" lon="6.283398">
        <ele>565.873000</ele>
        <time>2009-04-26T18:11:30Z</time>
      </trkpt>
      <trkpt lat="50.511476" lon="6.283055">
        <ele>567.315000</ele>
        <time>2009-04-26T18:11:55Z</time>
      </trkpt>
      <trkpt lat="50.511436" lon="6.282893">
        <ele>567.796000</ele>
        <time>2009-04-26T18:12:06Z</time>
      </trkpt>
      <trkpt lat="50.511385" lon="6.282720">
        <ele>568.276000</ele>
        <time>2009-04-26T18:12:19Z</time>
      </trkpt>
      <trkpt lat="50.511353" lon="6.282418">
        <ele>568.757000</ele>
        <time>2009-04-26T18:12:40Z</time>
      </trkpt>
      <trkpt lat="50.511359" lon="6.282220">
        <ele>568.276000</ele>
        <time>2009-04-26T18:12:53Z</time>
      </trkpt>
      <trkpt lat="50.511328" lon="6.281906">
        <ele>568.757000</ele>
        <time>2009-04-26T18:13:14Z</time>
      </trkpt>
      <trkpt lat="50.511296" lon="6.281399">
        <ele>569.238000</ele>
        <time>2009-04-26T18:13:48Z</time>
      </trkpt>
      <trkpt lat="50.511250" lon="6.280862">
        <ele>569.719000</ele>
        <time>2009-04-26T18:14:25Z</time>
      </trkpt>
      <trkpt lat="50.511211" lon="6.280337">
        <ele>571.160000</ele>
        <time>2009-04-26T18:15:00Z</time>
      </trkpt>
      <trkpt lat="50.511166" lon="6.279984">
        <ele>570.680000</ele>
        <time>2009-04-26T18:15:24Z</time>
      </trkpt>
      <trkpt lat="50.511126" lon="6.279582">
        <ele>571.641000</ele>
        <time>2009-04-26T18:15:52Z</time>
      </trkpt>
      <trkpt lat="50.511112" lon="6.279275">
        <ele>572.122000</ele>
        <time>2009-04-26T18:16:12Z</time>
      </trkpt>
      <trkpt lat="50.511149" lon="6.278971">
        <ele>572.603000</ele>
        <time>2009-04-26T18:16:33Z</time>
      </trkpt>
      <trkpt lat="50.511186" lon="6.278839">
        <ele>573.083000</ele>
        <time>2009-04-26T18:16:43Z</time>
      </trkpt>
      <trkpt lat="50.511298" lon="6.278511">
        <ele>575.486000</ele>
        <time>2009-04-26T18:17:08Z</time>
      </trkpt>
      <trkpt lat="50.511424" lon="6.278159">
        <ele>576.448000</ele>
        <time>2009-04-26T18:17:35Z</time>
      </trkpt>
      <trkpt lat="50.511572" lon="6.277735">
        <ele>578.851000</ele>
        <time>2009-04-26T18:18:07Z</time>
      </trkpt>
      <trkpt lat="50.511704" lon="6.277370">
        <ele>580.774000</ele>
        <time>2009-04-26T18:18:35Z</time>
      </trkpt>
      <trkpt lat="50.511827" lon="6.277079">
        <ele>583.657000</ele>
        <time>2009-04-26T18:18:59Z</time>
      </trkpt>
      <trkpt lat="50.511926" lon="6.276747">
        <ele>584.619000</ele>
        <time>2009-04-26T18:19:23Z</time>
      </trkpt>
      <trkpt lat="50.512013" lon="6.276453">
        <ele>585.580000</ele>
        <time>2009-04-26T18:19:45Z</time>
      </trkpt>
      <trkpt lat="50.512017" lon="6.276374">
        <ele>585.100000</ele>
        <time>2009-04-26T18:19:50Z</time>
      </trkpt>
      <trkpt lat="50.511971" lon="6.276292">
        <ele>584.619000</ele>
        <time>2009-04-26T18:19:58Z</time>
      </trkpt>
      <trkpt lat="50.511885" lon="6.276281">
        <ele>584.619000</ele>
        <time>2009-04-26T18:20:07Z</time>
      </trkpt>
      <trkpt lat="50.511947" lon="6.276283">
        <ele>584.138000</ele>
        <time>2009-04-26T18:20:13Z</time>
      </trkpt>
      <trkpt lat="50.511853" lon="6.276203">
        <ele>584.619000</ele>
        <time>2009-04-26T18:20:25Z</time>
      </trkpt>
      <trkpt lat="50.511861" lon="6.276181">
        <ele>585.580000</ele>
        <time>2009-04-26T18:20:26Z</time>
      </trkpt>
      <trkpt lat="50.511927" lon="6.276220">
        <ele>584.619000</ele>
        <time>2009-04-26T18:20:34Z</time>
      </trkpt>
      <trkpt lat="50.511988" lon="6.276252">
        <ele>585.100000</ele>
        <time>2009-04-26T18:20:40Z</time>
      </trkpt>
      <trkpt lat="50.512007" lon="6.276245">
        <ele>585.100000</ele>
        <time>2009-04-26T18:20:43Z</time>
      </trkpt>
      <trkpt lat="50.511898" lon="6.276196">
        <ele>585.100000</ele>
        <time>2009-04-26T18:20:55Z</time>
      </trkpt>
      <trkpt lat="50.511889" lon="6.276094">
        <ele>585.100000</ele>
        <time>2009-04-26T18:21:01Z</time>
      </trkpt>
      <trkpt lat="50.511945" lon="6.276179">
        <ele>584.619000</ele>
        <time>2009-04-26T18:21:10Z</time>
      </trkpt>
      <trkpt lat="50.511928" lon="6.276169">
        <ele>585.100000</ele>
        <time>2009-04-26T18:21:12Z</time>
      </trkpt>
      <trkpt lat="50.511832" lon="6.276162">
        <ele>585.580000</ele>
        <time>2009-04-26T18:21:22Z</time>
      </trkpt>
      <trkpt lat="50.511833" lon="6.276135">
        <ele>585.580000</ele>
        <time>2009-04-26T18:21:24Z</time>
      </trkpt>
      <trkpt lat="50.511913" lon="6.276132">
        <ele>585.580000</ele>
        <time>2009-04-26T18:21:32Z</time>
      </trkpt>
      <trkpt lat="50.511948" lon="6.276131">
        <ele>585.100000</ele>
        <time>2009-04-26T18:21:36Z</time>
      </trkpt>
      <trkpt lat="50.512013" lon="6.276167">
        <ele>585.580000</ele>
        <time>2009-04-26T18:21:43Z</time>
      </trkpt>
      <trkpt lat="50.511946" lon="6.276210">
        <ele>585.580000</ele>
        <time>2009-04-26T18:21:51Z</time>
      </trkpt>
      <trkpt lat="50.512092" lon="6.276280">
        <ele>583.657000</ele>
        <time>2009-04-26T18:22:07Z</time>
      </trkpt>
      <trkpt lat="50.511989" lon="6.276279">
        <ele>585.100000</ele>
        <time>2009-04-26T18:22:18Z</time>
      </trkpt>
      <trkpt lat="50.511994" lon="6.276293">
        <ele>585.100000</ele>
        <time>2009-04-26T18:22:19Z</time>
      </trkpt>
      <trkpt lat="50.511981" lon="6.276356">
        <ele>585.100000</ele>
        <time>2009-04-26T18:22:23Z</time>
      </trkpt>
      <trkpt lat="50.511950" lon="6.276425">
        <ele>585.100000</ele>
        <time>2009-04-26T18:22:29Z</time>
      </trkpt>
      <trkpt lat="50.511816" lon="6.276280">
        <ele>585.580000</ele>
        <time>2009-04-26T18:22:46Z</time>
      </trkpt>
      <trkpt lat="50.511708" lon="6.276191">
        <ele>586.061000</ele>
        <time>2009-04-26T18:22:59Z</time>
      </trkpt>
      <trkpt lat="50.511560" lon="6.276085">
        <ele>586.542000</ele>
        <time>2009-04-26T18:23:16Z</time>
      </trkpt>
      <trkpt lat="50.511442" lon="6.275982">
        <ele>586.542000</ele>
        <time>2009-04-26T18:23:30Z</time>
      </trkpt>
      <trkpt lat="50.511369" lon="6.275899">
        <ele>587.503000</ele>
        <time>2009-04-26T18:23:40Z</time>
      </trkpt>
      <trkpt lat="50.511252" lon="6.275768">
        <ele>587.983000</ele>
        <time>2009-04-26T18:23:55Z</time>
      </trkpt>
      <trkpt lat="50.511077" lon="6.275632">
        <ele>588.945000</ele>
        <time>2009-04-26T18:24:15Z</time>
      </trkpt>
      <trkpt lat="50.510927" lon="6.275491">
        <ele>590.387000</ele>
        <time>2009-04-26T18:24:34Z</time>
      </trkpt>
      <trkpt lat="50.510793" lon="6.275360">
        <ele>591.348000</ele>
        <time>2009-04-26T18:24:50Z</time>
      </trkpt>
      <trkpt lat="50.510603" lon="6.275189">
        <ele>593.271000</ele>
        <time>2009-04-26T18:25:13Z</time>
      </trkpt>
      <trkpt lat="50.510449" lon="6.275076">
        <ele>593.271000</ele>
        <time>2009-04-26T18:25:31Z</time>
      </trkpt>
      <trkpt lat="50.510400" lon="6.275037">
        <ele>592.790000</ele>
        <time>2009-04-26T18:25:37Z</time>
      </trkpt>
      <trkpt lat="50.510320" lon="6.274974">
        <ele>594.232000</ele>
        <time>2009-04-26T18:25:47Z</time>
      </trkpt>
      <trkpt lat="50.510192" lon="6.274868">
        <ele>594.713000</ele>
        <time>2009-04-26T18:26:02Z</time>
      </trkpt>
      <trkpt lat="50.510013" lon="6.274714">
        <ele>594.713000</ele>
        <time>2009-04-26T18:26:23Z</time>
      </trkpt>
      <trkpt lat="50.509799" lon="6.274497">
        <ele>595.193000</ele>
        <time>2009-04-26T18:26:50Z</time>
      </trkpt>
      <trkpt lat="50.509608" lon="6.274321">
        <ele>596.155000</ele>
        <time>2009-04-26T18:27:14Z</time>
      </trkpt>
      <trkpt lat="50.509406" lon="6.274149">
        <ele>596.635000</ele>
        <time>2009-04-26T18:27:38Z</time>
      </trkpt>
      <trkpt lat="50.509222" lon="6.273969">
        <ele>597.116000</ele>
        <time>2009-04-26T18:28:01Z</time>
      </trkpt>
      <trkpt lat="50.509056" lon="6.273843">
        <ele>597.116000</ele>
        <time>2009-04-26T18:28:20Z</time>
      </trkpt>
      <trkpt lat="50.508968" lon="6.273733">
        <ele>598.077000</ele>
        <time>2009-04-26T18:28:32Z</time>
      </trkpt>
      <trkpt lat="50.508790" lon="6.273584">
        <ele>596.635000</ele>
        <time>2009-04-26T18:28:53Z</time>
      </trkpt>
      <trkpt lat="50.508648" lon="6.273463">
        <ele>596.155000</ele>
        <time>2009-04-26T18:29:10Z</time>
      </trkpt>
      <trkpt lat="50.508514" lon="6.273329">
        <ele>596.635000</ele>
        <time>2009-04-26T18:29:27Z</time>
      </trkpt>
      <trkpt lat="50.508339" lon="6.273160">
        <ele>596.155000</ele>
        <time>2009-04-26T18:29:49Z</time>
      </trkpt>
      <trkpt lat="50.508201" lon="6.273018">
        <ele>595.674000</ele>
        <time>2009-04-26T18:30:06Z</time>
      </trkpt>
      <trkpt lat="50.508033" lon="6.272899">
        <ele>595.674000</ele>
        <time>2009-04-26T18:30:25Z</time>
      </trkpt>
      <trkpt lat="50.507912" lon="6.272796">
        <ele>595.193000</ele>
        <time>2009-04-26T18:30:40Z</time>
      </trkpt>
      <trkpt lat="50.507794" lon="6.272689">
        <ele>595.193000</ele>
        <time>2009-04-26T18:30:54Z</time>
      </trkpt>
      <trkpt lat="50.507647" lon="6.272552">
        <ele>594.232000</ele>
        <time>2009-04-26T18:31:12Z</time>
      </trkpt>
      <trkpt lat="50.507454" lon="6.272402">
        <ele>593.271000</ele>
        <time>2009-04-26T18:31:35Z</time>
      </trkpt>
      <trkpt lat="50.507298" lon="6.272272">
        <ele>592.310000</ele>
        <time>2009-04-26T18:31:54Z</time>
      </trkpt>
      <trkpt lat="50.507170" lon="6.272135">
        <ele>591.348000</ele>
        <time>2009-04-26T18:32:10Z</time>
      </trkpt>
      <trkpt lat="50.507073" lon="6.272031">
        <ele>590.867000</ele>
        <time>2009-04-26T18:32:22Z</time>
      </trkpt>
      <trkpt lat="50.506934" lon="6.271879">
        <ele>589.906000</ele>
        <time>2009-04-26T18:32:40Z</time>
      </trkpt>
      <trkpt lat="50.506696" lon="6.271661">
        <ele>589.426000</ele>
        <time>2009-04-26T18:33:09Z</time>
      </trkpt>
      <trkpt lat="50.506555" lon="6.271521">
        <ele>587.983000</ele>
        <time>2009-04-26T18:33:27Z</time>
      </trkpt>
      <trkpt lat="50.506466" lon="6.271468">
        <ele>588.464000</ele>
        <time>2009-04-26T18:33:37Z</time>
      </trkpt>
      <trkpt lat="50.506282" lon="6.271334">
        <ele>587.983000</ele>
        <time>2009-04-26T18:33:58Z</time>
      </trkpt>
      <trkpt lat="50.506166" lon="6.271245">
        <ele>587.022000</ele>
        <time>2009-04-26T18:34:12Z</time>
      </trkpt>
      <trkpt lat="50.506131" lon="6.271235">
        <ele>587.022000</ele>
        <time>2009-04-26T18:34:15Z</time>
      </trkpt>
      <trkpt lat="50.505994" lon="6.271098">
        <ele>586.542000</ele>
        <time>2009-04-26T18:34:33Z</time>
      </trkpt>
      <trkpt lat="50.505889" lon="6.270976">
        <ele>586.061000</ele>
        <time>2009-04-26T18:34:46Z</time>
      </trkpt>
      <trkpt lat="50.505743" lon="6.270752">
        <ele>586.061000</ele>
        <time>2009-04-26T18:35:08Z</time>
      </trkpt>
      <trkpt lat="50.505592" lon="6.270413">
        <ele>585.100000</ele>
        <time>2009-04-26T18:35:36Z</time>
      </trkpt>
      <trkpt lat="50.505485" lon="6.270115">
        <ele>584.619000</ele>
        <time>2009-04-26T18:35:59Z</time>
      </trkpt>
      <trkpt lat="50.505377" lon="6.269893">
        <ele>584.138000</ele>
        <time>2009-04-26T18:36:17Z</time>
      </trkpt>
      <trkpt lat="50.505233" lon="6.269588">
        <ele>584.138000</ele>
        <time>2009-04-26T18:36:43Z</time>
      </trkpt>
      <trkpt lat="50.505294" lon="6.269378">
        <ele>585.580000</ele>
        <time>2009-04-26T18:36:58Z</time>
      </trkpt>
      <trkpt lat="50.505409" lon="6.269202">
        <ele>586.542000</ele>
        <time>2009-04-26T18:37:15Z</time>
      </trkpt>
      <trkpt lat="50.505528" lon="6.269011">
        <ele>587.022000</ele>
        <time>2009-04-26T18:37:33Z</time>
      </trkpt>
      <trkpt lat="50.505643" lon="6.268818">
        <ele>588.945000</ele>
        <time>2009-04-26T18:37:51Z</time>
      </trkpt>
      <trkpt lat="50.505735" lon="6.268638">
        <ele>589.906000</ele>
        <time>2009-04-26T18:38:06Z</time>
      </trkpt>
      <trkpt lat="50.505833" lon="6.268441">
        <ele>592.310000</ele>
        <time>2009-04-26T18:38:23Z</time>
      </trkpt>
      <trkpt lat="50.505951" lon="6.268227">
        <ele>595.193000</ele>
        <time>2009-04-26T18:38:42Z</time>
      </trkpt>
      <trkpt lat="50.506027" lon="6.268033">
        <ele>597.597000</ele>
        <time>2009-04-26T18:38:57Z</time>
      </trkpt>
      <trkpt lat="50.506074" lon="6.267918">
        <ele>597.597000</ele>
        <time>2009-04-26T18:39:06Z</time>
      </trkpt>
      <trkpt lat="50.506016" lon="6.267835">
        <ele>598.077000</ele>
        <time>2009-04-26T18:39:15Z</time>
      </trkpt>
      <trkpt lat="50.506036" lon="6.267817">
        <ele>598.558000</ele>
        <time>2009-04-26T18:39:17Z</time>
      </trkpt>
      <trkpt lat="50.506102" lon="6.267784">
        <ele>599.039000</ele>
        <time>2009-04-26T18:39:24Z</time>
      </trkpt>
      <trkpt lat="50.506136" lon="6.267667">
        <ele>599.039000</ele>
        <time>2009-04-26T18:39:33Z</time>
      </trkpt>
      <trkpt lat="50.506187" lon="6.267519">
        <ele>599.519000</ele>
        <time>2009-04-26T18:39:44Z</time>
      </trkpt>
      <trkpt lat="50.506295" lon="6.267304">
        <ele>599.519000</ele>
        <time>2009-04-26T18:40:03Z</time>
      </trkpt>
      <trkpt lat="50.506394" lon="6.267086">
        <ele>599.519000</ele>
        <time>2009-04-26T18:40:21Z</time>
      </trkpt>
      <trkpt lat="50.506493" lon="6.266830">
        <ele>599.519000</ele>
        <time>2009-04-26T18:40:41Z</time>
      </trkpt>
      <trkpt lat="50.506604" lon="6.266598">
        <ele>600.000000</ele>
        <time>2009-04-26T18:41:00Z</time>
      </trkpt>
      <trkpt lat="50.506672" lon="6.266376">
        <ele>599.519000</ele>
        <time>2009-04-26T18:41:17Z</time>
      </trkpt>
      <trkpt lat="50.506755" lon="6.266092">
        <ele>598.558000</ele>
        <time>2009-04-26T18:41:38Z</time>
      </trkpt>
      <trkpt lat="50.506857" lon="6.265785">
        <ele>597.116000</ele>
        <time>2009-04-26T18:42:01Z</time>
      </trkpt>
      <trkpt lat="50.506888" lon="6.265688">
        <ele>595.674000</ele>
        <time>2009-04-26T18:42:08Z</time>
      </trkpt>
      <trkpt lat="50.506954" lon="6.265500">
        <ele>596.155000</ele>
        <time>2009-04-26T18:42:23Z</time>
      </trkpt>
      <trkpt lat="50.506984" lon="6.265447">
        <ele>596.155000</ele>
        <time>2009-04-26T18:42:27Z</time>
      </trkpt>
      <trkpt lat="50.507090" lon="6.265249">
        <ele>595.674000</ele>
        <time>2009-04-26T18:42:45Z</time>
      </trkpt>
      <trkpt lat="50.507150" lon="6.265093">
        <ele>595.193000</ele>
        <time>2009-04-26T18:42:57Z</time>
      </trkpt>
      <trkpt lat="50.507175" lon="6.265019">
        <ele>594.713000</ele>
        <time>2009-04-26T18:43:03Z</time>
      </trkpt>
      <trkpt lat="50.507191" lon="6.264978">
        <ele>594.232000</ele>
        <time>2009-04-26T18:43:06Z</time>
      </trkpt>
      <trkpt lat="50.507268" lon="6.264774">
        <ele>594.232000</ele>
        <time>2009-04-26T18:43:22Z</time>
      </trkpt>
      <trkpt lat="50.507311" lon="6.264689">
        <ele>594.232000</ele>
        <time>2009-04-26T18:43:29Z</time>
      </trkpt>
      <trkpt lat="50.507382" lon="6.264539">
        <ele>593.751000</ele>
        <time>2009-04-26T18:43:42Z</time>
      </trkpt>
      <trkpt lat="50.507468" lon="6.264371">
        <ele>593.751000</ele>
        <time>2009-04-26T18:43:56Z</time>
      </trkpt>
      <trkpt lat="50.507487" lon="6.264313">
        <ele>593.271000</ele>
        <time>2009-04-26T18:44:00Z</time>
      </trkpt>
      <trkpt lat="50.507526" lon="6.264260">
        <ele>593.271000</ele>
        <time>2009-04-26T18:44:06Z</time>
      </trkpt>
      <trkpt lat="50.507606" lon="6.264054">
        <ele>591.829000</ele>
        <time>2009-04-26T18:44:22Z</time>
      </trkpt>
      <trkpt lat="50.507678" lon="6.263873">
        <ele>590.387000</ele>
        <time>2009-04-26T18:44:36Z</time>
      </trkpt>
      <trkpt lat="50.507718" lon="6.263735">
        <ele>590.387000</ele>
        <time>2009-04-26T18:44:46Z</time>
      </trkpt>
      <trkpt lat="50.507756" lon="6.263562">
        <ele>589.426000</ele>
        <time>2009-04-26T18:44:59Z</time>
      </trkpt>
      <trkpt lat="50.507877" lon="6.263355">
        <ele>588.464000</ele>
        <time>2009-04-26T18:45:18Z</time>
      </trkpt>
      <trkpt lat="50.507931" lon="6.263221">
        <ele>588.464000</ele>
        <time>2009-04-26T18:45:28Z</time>
      </trkpt>
      <trkpt lat="50.508002" lon="6.263096">
        <ele>587.503000</ele>
        <time>2009-04-26T18:45:39Z</time>
      </trkpt>
      <trkpt lat="50.508133" lon="6.262858">
        <ele>586.542000</ele>
        <time>2009-04-26T18:46:00Z</time>
      </trkpt>
      <trkpt lat="50.508177" lon="6.262767">
        <ele>585.580000</ele>
        <time>2009-04-26T18:46:08Z</time>
      </trkpt>
      <trkpt lat="50.508216" lon="6.262655">
        <ele>583.177000</ele>
        <time>2009-04-26T18:46:17Z</time>
      </trkpt>
      <trkpt lat="50.508271" lon="6.262603">
        <ele>583.657000</ele>
        <time>2009-04-26T18:46:24Z</time>
      </trkpt>
      <trkpt lat="50.508285" lon="6.262591">
        <ele>583.657000</ele>
        <time>2009-04-26T18:46:25Z</time>
      </trkpt>
      <trkpt lat="50.508328" lon="6.262511">
        <ele>585.100000</ele>
        <time>2009-04-26T18:46:32Z</time>
      </trkpt>
      <trkpt lat="50.508378" lon="6.262271">
        <ele>583.177000</ele>
        <time>2009-04-26T18:46:49Z</time>
      </trkpt>
      <trkpt lat="50.508402" lon="6.262200">
        <ele>582.696000</ele>
        <time>2009-04-26T18:46:55Z</time>
      </trkpt>
      <trkpt lat="50.508518" lon="6.261964">
        <ele>581.254000</ele>
        <time>2009-04-26T18:47:15Z</time>
      </trkpt>
      <trkpt lat="50.508637" lon="6.261713">
        <ele>579.812000</ele>
        <time>2009-04-26T18:47:36Z</time>
      </trkpt>
      <trkpt lat="50.508682" lon="6.261547">
        <ele>579.812000</ele>
        <time>2009-04-26T18:47:48Z</time>
      </trkpt>
      <trkpt lat="50.508790" lon="6.261273">
        <ele>577.890000</ele>
        <time>2009-04-26T18:48:09Z</time>
      </trkpt>
      <trkpt lat="50.508905" lon="6.261040">
        <ele>575.967000</ele>
        <time>2009-04-26T18:48:29Z</time>
      </trkpt>
      <trkpt lat="50.508940" lon="6.260984">
        <ele>575.486000</ele>
        <time>2009-04-26T18:48:34Z</time>
      </trkpt>
      <trkpt lat="50.509012" lon="6.260805">
        <ele>574.525000</ele>
        <time>2009-04-26T18:48:48Z</time>
      </trkpt>
      <trkpt lat="50.509055" lon="6.260683">
        <ele>574.044000</ele>
        <time>2009-04-26T18:48:58Z</time>
      </trkpt>
      <trkpt lat="50.509066" lon="6.260641">
        <ele>573.564000</ele>
        <time>2009-04-26T18:49:01Z</time>
      </trkpt>
      <trkpt lat="50.509103" lon="6.260568">
        <ele>574.044000</ele>
        <time>2009-04-26T18:49:07Z</time>
      </trkpt>
      <trkpt lat="50.509163" lon="6.260503">
        <ele>574.044000</ele>
        <time>2009-04-26T18:49:15Z</time>
      </trkpt>
      <trkpt lat="50.509200" lon="6.260386">
        <ele>572.122000</ele>
        <time>2009-04-26T18:49:24Z</time>
      </trkpt>
      <trkpt lat="50.509273" lon="6.260169">
        <ele>571.160000</ele>
        <time>2009-04-26T18:49:40Z</time>
      </trkpt>
      <trkpt lat="50.509349" lon="6.260118">
        <ele>569.238000</ele>
        <time>2009-04-26T18:49:49Z</time>
      </trkpt>
      <trkpt lat="50.509395" lon="6.260018">
        <ele>568.757000</ele>
        <time>2009-04-26T18:49:57Z</time>
      </trkpt>
      <trkpt lat="50.509547" lon="6.259725">
        <ele>567.315000</ele>
        <time>2009-04-26T18:50:22Z</time>
      </trkpt>
      <trkpt lat="50.509576" lon="6.259685">
        <ele>566.834000</ele>
        <time>2009-04-26T18:50:26Z</time>
      </trkpt>
      <trkpt lat="50.509629" lon="6.259688">
        <ele>566.834000</ele>
        <time>2009-04-26T18:50:32Z</time>
      </trkpt>
      <trkpt lat="50.509607" lon="6.259708">
        <ele>566.834000</ele>
        <time>2009-04-26T18:50:35Z</time>
      </trkpt>
      <trkpt lat="50.509628" lon="6.259651">
        <ele>566.834000</ele>
        <time>2009-04-26T18:50:39Z</time>
      </trkpt>
      <trkpt lat="50.509788" lon="6.259359">
        <ele>566.834000</ele>
        <time>2009-04-26T18:51:05Z</time>
      </trkpt>
      <trkpt lat="50.509857" lon="6.259224">
        <ele>566.834000</ele>
        <time>2009-04-26T18:51:17Z</time>
      </trkpt>
      <trkpt lat="50.509867" lon="6.259208">
        <ele>566.354000</ele>
        <time>2009-04-26T18:51:18Z</time>
      </trkpt>
      <trkpt lat="50.509970" lon="6.258929">
        <ele>566.354000</ele>
        <time>2009-04-26T18:51:40Z</time>
      </trkpt>
      <trkpt lat="50.509966" lon="6.258821">
        <ele>565.393000</ele>
        <time>2009-04-26T18:51:47Z</time>
      </trkpt>
      <trkpt lat="50.509983" lon="6.258729">
        <ele>565.393000</ele>
        <time>2009-04-26T18:51:53Z</time>
      </trkpt>
      <trkpt lat="50.510068" lon="6.258493">
        <ele>563.950000</ele>
        <time>2009-04-26T18:52:12Z</time>
      </trkpt>
      <trkpt lat="50.510118" lon="6.258348">
        <ele>563.950000</ele>
        <time>2009-04-26T18:52:23Z</time>
      </trkpt>
      <trkpt lat="50.510132" lon="6.258310">
        <ele>563.470000</ele>
        <time>2009-04-26T18:52:26Z</time>
      </trkpt>
      <trkpt lat="50.510212" lon="6.258186">
        <ele>563.470000</ele>
        <time>2009-04-26T18:52:37Z</time>
      </trkpt>
      <trkpt lat="50.510231" lon="6.258171">
        <ele>562.509000</ele>
        <time>2009-04-26T18:52:40Z</time>
      </trkpt>
      <trkpt lat="50.510339" lon="6.258020">
        <ele>562.509000</ele>
        <time>2009-04-26T18:52:55Z</time>
      </trkpt>
      <trkpt lat="50.510391" lon="6.257961">
        <ele>562.028000</ele>
        <time>2009-04-26T18:53:02Z</time>
      </trkpt>
      <trkpt lat="50.510507" lon="6.257816">
        <ele>561.067000</ele>
        <time>2009-04-26T18:53:17Z</time>
      </trkpt>
      <trkpt lat="50.510598" lon="6.257689">
        <ele>560.105000</ele>
        <time>2009-04-26T18:53:30Z</time>
      </trkpt>
      <trkpt lat="50.510684" lon="6.257537">
        <ele>558.663000</ele>
        <time>2009-04-26T18:53:44Z</time>
      </trkpt>
      <trkpt lat="50.510717" lon="6.257440">
        <ele>558.183000</ele>
        <time>2009-04-26T18:53:51Z</time>
      </trkpt>
      <trkpt lat="50.510834" lon="6.257227">
        <ele>557.702000</ele>
        <time>2009-04-26T18:54:10Z</time>
      </trkpt>
      <trkpt lat="50.510904" lon="6.257099">
        <ele>557.702000</ele>
        <time>2009-04-26T18:54:21Z</time>
      </trkpt>
      <trkpt lat="50.510923" lon="6.257027">
        <ele>557.702000</ele>
        <time>2009-04-26T18:54:27Z</time>
      </trkpt>
      <trkpt lat="50.510972" lon="6.256888">
        <ele>557.702000</ele>
        <time>2009-04-26T18:54:37Z</time>
      </trkpt>
      <trkpt lat="50.511010" lon="6.256758">
        <ele>557.221000</ele>
        <time>2009-04-26T18:54:47Z</time>
      </trkpt>
      <trkpt lat="50.511018" lon="6.256723">
        <ele>557.221000</ele>
        <time>2009-04-26T18:54:49Z</time>
      </trkpt>
      <trkpt lat="50.511057" lon="6.256592">
        <ele>557.221000</ele>
        <time>2009-04-26T18:54:59Z</time>
      </trkpt>
      <trkpt lat="50.511070" lon="6.256296">
        <ele>557.221000</ele>
        <time>2009-04-26T18:55:19Z</time>
      </trkpt>
      <trkpt lat="50.511088" lon="6.256160">
        <ele>556.741000</ele>
        <time>2009-04-26T18:55:28Z</time>
      </trkpt>
      <trkpt lat="50.511120" lon="6.255959">
        <ele>556.260000</ele>
        <time>2009-04-26T18:55:42Z</time>
      </trkpt>
      <trkpt lat="50.511162" lon="6.255796">
        <ele>555.299000</ele>
        <time>2009-04-26T18:55:54Z</time>
      </trkpt>
      <trkpt lat="50.511204" lon="6.255666">
        <ele>555.299000</ele>
        <time>2009-04-26T18:56:04Z</time>
      </trkpt>
      <trkpt lat="50.511249" lon="6.255486">
        <ele>554.818000</ele>
        <time>2009-04-26T18:56:17Z</time>
      </trkpt>
      <trkpt lat="50.511292" lon="6.255315">
        <ele>555.299000</ele>
        <time>2009-04-26T18:56:29Z</time>
      </trkpt>
      <trkpt lat="50.511379" lon="6.255124">
        <ele>553.857000</ele>
        <time>2009-04-26T18:56:45Z</time>
      </trkpt>
      <trkpt lat="50.511392" lon="6.255000">
        <ele>553.857000</ele>
        <time>2009-04-26T18:56:53Z</time>
      </trkpt>
      <trkpt lat="50.511436" lon="6.254812">
        <ele>552.415000</ele>
        <time>2009-04-26T18:57:06Z</time>
      </trkpt>
      <trkpt lat="50.511491" lon="6.254604">
        <ele>550.492000</ele>
        <time>2009-04-26T18:57:22Z</time>
      </trkpt>
      <trkpt lat="50.511505" lon="6.254524">
        <ele>547.127000</ele>
        <time>2009-04-26T18:57:27Z</time>
      </trkpt>
      <trkpt lat="50.511511" lon="6.254504">
        <ele>552.415000</ele>
        <time>2009-04-26T18:57:29Z</time>
      </trkpt>
      <trkpt lat="50.511500" lon="6.254427">
        <ele>550.011000</ele>
        <time>2009-04-26T18:57:34Z</time>
      </trkpt>
      <trkpt lat="50.511491" lon="6.254314">
        <ele>546.647000</ele>
        <time>2009-04-26T18:57:42Z</time>
      </trkpt>
      <trkpt lat="50.511492" lon="6.254293">
        <ele>550.492000</ele>
        <time>2009-04-26T18:57:43Z</time>
      </trkpt>
      <trkpt lat="50.511489" lon="6.254089">
        <ele>548.089000</ele>
        <time>2009-04-26T18:57:57Z</time>
      </trkpt>
      <trkpt lat="50.511502" lon="6.253922">
        <ele>547.127000</ele>
        <time>2009-04-26T18:58:08Z</time>
      </trkpt>
      <trkpt lat="50.511558" lon="6.253735">
        <ele>545.205000</ele>
        <time>2009-04-26T18:58:22Z</time>
      </trkpt>
      <trkpt lat="50.511575" lon="6.253640">
        <ele>544.244000</ele>
        <time>2009-04-26T18:58:28Z</time>
      </trkpt>
      <trkpt lat="50.511602" lon="6.253447">
        <ele>542.802000</ele>
        <time>2009-04-26T18:58:42Z</time>
      </trkpt>
      <trkpt lat="50.511629" lon="6.253166">
        <ele>539.918000</ele>
        <time>2009-04-26T18:59:01Z</time>
      </trkpt>
      <trkpt lat="50.511642" lon="6.252988">
        <ele>538.956000</ele>
        <time>2009-04-26T18:59:13Z</time>
      </trkpt>
      <trkpt lat="50.511643" lon="6.252908">
        <ele>538.476000</ele>
        <time>2009-04-26T18:59:18Z</time>
      </trkpt>
      <trkpt lat="50.511666" lon="6.252772">
        <ele>536.072000</ele>
        <time>2009-04-26T18:59:28Z</time>
      </trkpt>
      <trkpt lat="50.511686" lon="6.252606">
        <ele>535.111000</ele>
        <time>2009-04-26T18:59:39Z</time>
      </trkpt>
      <trkpt lat="50.511693" lon="6.252532">
        <ele>534.150000</ele>
        <time>2009-04-26T18:59:44Z</time>
      </trkpt>
      <trkpt lat="50.511690" lon="6.252425">
        <ele>533.188000</ele>
        <time>2009-04-26T18:59:51Z</time>
      </trkpt>
      <trkpt lat="50.511714" lon="6.252364">
        <ele>532.708000</ele>
        <time>2009-04-26T18:59:56Z</time>
      </trkpt>
      <trkpt lat="50.511755" lon="6.252241">
        <ele>531.746000</ele>
        <time>2009-04-26T19:00:05Z</time>
      </trkpt>
      <trkpt lat="50.511785" lon="6.252144">
        <ele>530.304000</ele>
        <time>2009-04-26T19:00:12Z</time>
      </trkpt>
      <trkpt lat="50.511821" lon="6.251943">
        <ele>527.901000</ele>
        <time>2009-04-26T19:00:26Z</time>
      </trkpt>
      <trkpt lat="50.511913" lon="6.251675">
        <ele>525.978000</ele>
        <time>2009-04-26T19:00:47Z</time>
      </trkpt>
      <trkpt lat="50.511960" lon="6.251524">
        <ele>524.536000</ele>
        <time>2009-04-26T19:00:58Z</time>
      </trkpt>
      <trkpt lat="50.511963" lon="6.251536">
        <ele>524.056000</ele>
        <time>2009-04-26T19:00:59Z</time>
      </trkpt>
      <trkpt lat="50.512098" lon="6.251626">
        <ele>523.575000</ele>
        <time>2009-04-26T19:01:14Z</time>
      </trkpt>
      <trkpt lat="50.512220" lon="6.251734">
        <ele>521.653000</ele>
        <time>2009-04-26T19:01:29Z</time>
      </trkpt>
      <trkpt lat="50.512336" lon="6.251882">
        <ele>520.691000</ele>
        <time>2009-04-26T19:01:45Z</time>
      </trkpt>
      <trkpt lat="50.512417" lon="6.251983">
        <ele>520.211000</ele>
        <time>2009-04-26T19:01:56Z</time>
      </trkpt>
      <trkpt lat="50.512480" lon="6.252069">
        <ele>519.730000</ele>
        <time>2009-04-26T19:02:05Z</time>
      </trkpt>
      <trkpt lat="50.512568" lon="6.252230">
        <ele>520.211000</ele>
        <time>2009-04-26T19:02:19Z</time>
      </trkpt>
      <trkpt lat="50.512655" lon="6.252472">
        <ele>522.133000</ele>
        <time>2009-04-26T19:02:37Z</time>
      </trkpt>
      <trkpt lat="50.512727" lon="6.252651">
        <ele>523.575000</ele>
        <time>2009-04-26T19:02:52Z</time>
      </trkpt>
      <trkpt lat="50.512806" lon="6.252788">
        <ele>524.536000</ele>
        <time>2009-04-26T19:03:04Z</time>
      </trkpt>
      <trkpt lat="50.512910" lon="6.252939">
        <ele>526.459000</ele>
        <time>2009-04-26T19:03:19Z</time>
      </trkpt>
      <trkpt lat="50.512997" lon="6.253061">
        <ele>527.420000</ele>
        <time>2009-04-26T19:03:31Z</time>
      </trkpt>
      <trkpt lat="50.513087" lon="6.253203">
        <ele>528.382000</ele>
        <time>2009-04-26T19:03:45Z</time>
      </trkpt>
      <trkpt lat="50.513092" lon="6.253219">
        <ele>527.901000</ele>
        <time>2009-04-26T19:03:46Z</time>
      </trkpt>
      <trkpt lat="50.513162" lon="6.253372">
        <ele>530.304000</ele>
        <time>2009-04-26T19:03:58Z</time>
      </trkpt>
      <trkpt lat="50.513340" lon="6.253504">
        <ele>530.785000</ele>
        <time>2009-04-26T19:04:19Z</time>
      </trkpt>
      <trkpt lat="50.513385" lon="6.253532">
        <ele>530.785000</ele>
        <time>2009-04-26T19:04:24Z</time>
      </trkpt>
      <trkpt lat="50.513545" lon="6.253644">
        <ele>533.188000</ele>
        <time>2009-04-26T19:04:43Z</time>
      </trkpt>
      <trkpt lat="50.513706" lon="6.253738">
        <ele>535.111000</ele>
        <time>2009-04-26T19:05:01Z</time>
      </trkpt>
      <trkpt lat="50.513858" lon="6.253833">
        <ele>536.553000</ele>
        <time>2009-04-26T19:05:18Z</time>
      </trkpt>
      <trkpt lat="50.513953" lon="6.253878">
        <ele>537.034000</ele>
        <time>2009-04-26T19:05:29Z</time>
      </trkpt>
      <trkpt lat="50.514079" lon="6.253927">
        <ele>538.956000</ele>
        <time>2009-04-26T19:05:42Z</time>
      </trkpt>
      <trkpt lat="50.514194" lon="6.253970">
        <ele>540.398000</ele>
        <time>2009-04-26T19:05:55Z</time>
      </trkpt>
      <trkpt lat="50.514307" lon="6.254033">
        <ele>541.840000</ele>
        <time>2009-04-26T19:06:07Z</time>
      </trkpt>
      <trkpt lat="50.514439" lon="6.254164">
        <ele>542.321000</ele>
        <time>2009-04-26T19:06:24Z</time>
      </trkpt>
      <trkpt lat="50.514576" lon="6.254253">
        <ele>542.802000</ele>
        <time>2009-04-26T19:06:39Z</time>
      </trkpt>
      <trkpt lat="50.514683" lon="6.254276">
        <ele>543.282000</ele>
        <time>2009-04-26T19:06:51Z</time>
      </trkpt>
      <trkpt lat="50.514767" lon="6.254277">
        <ele>543.282000</ele>
        <time>2009-04-26T19:07:00Z</time>
      </trkpt>
      <trkpt lat="50.514898" lon="6.254204">
        <ele>543.282000</ele>
        <time>2009-04-26T19:07:14Z</time>
      </trkpt>
      <trkpt lat="50.515090" lon="6.254112">
        <ele>544.244000</ele>
        <time>2009-04-26T19:07:36Z</time>
      </trkpt>
      <trkpt lat="50.515227" lon="6.253997">
        <ele>544.724000</ele>
        <time>2009-04-26T19:07:52Z</time>
      </trkpt>
      <trkpt lat="50.515253" lon="6.253907">
        <ele>544.724000</ele>
        <time>2009-04-26T19:07:58Z</time>
      </trkpt>
      <trkpt lat="50.515281" lon="6.253813">
        <ele>544.724000</ele>
        <time>2009-04-26T19:08:05Z</time>
      </trkpt>
      <trkpt lat="50.515343" lon="6.253674">
        <ele>545.686000</ele>
        <time>2009-04-26T19:08:17Z</time>
      </trkpt>
      <trkpt lat="50.515358" lon="6.253606">
        <ele>545.686000</ele>
        <time>2009-04-26T19:08:22Z</time>
      </trkpt>
      <trkpt lat="50.515372" lon="6.253574">
        <ele>546.166000</ele>
        <time>2009-04-26T19:08:24Z</time>
      </trkpt>
      <trkpt lat="50.515406" lon="6.253245">
        <ele>546.166000</ele>
        <time>2009-04-26T19:08:47Z</time>
      </trkpt>
      <trkpt lat="50.515392" lon="6.253253">
        <ele>545.686000</ele>
        <time>2009-04-26T19:08:48Z</time>
      </trkpt>
      <trkpt lat="50.515404" lon="6.253239">
        <ele>545.205000</ele>
        <time>2009-04-26T19:08:50Z</time>
      </trkpt>
      <trkpt lat="50.515374" lon="6.252945">
        <ele>546.166000</ele>
        <time>2009-04-26T19:09:10Z</time>
      </trkpt>
      <trkpt lat="50.515432" lon="6.252689">
        <ele>547.127000</ele>
        <time>2009-04-26T19:09:28Z</time>
      </trkpt>
      <trkpt lat="50.515436" lon="6.252653">
        <ele>547.127000</ele>
        <time>2009-04-26T19:09:30Z</time>
      </trkpt>
      <trkpt lat="50.515454" lon="6.252577">
        <ele>547.127000</ele>
        <time>2009-04-26T19:09:36Z</time>
      </trkpt>
      <trkpt lat="50.515502" lon="6.252309">
        <ele>545.686000</ele>
        <time>2009-04-26T19:09:54Z</time>
      </trkpt>
      <trkpt lat="50.515537" lon="6.252056">
        <ele>546.166000</ele>
        <time>2009-04-26T19:10:12Z</time>
      </trkpt>
      <trkpt lat="50.515534" lon="6.251791">
        <ele>546.166000</ele>
        <time>2009-04-26T19:10:30Z</time>
      </trkpt>
      <trkpt lat="50.515529" lon="6.251770">
        <ele>546.647000</ele>
        <time>2009-04-26T19:10:31Z</time>
      </trkpt>
      <trkpt lat="50.515511" lon="6.251642">
        <ele>546.647000</ele>
        <time>2009-04-26T19:10:40Z</time>
      </trkpt>
      <trkpt lat="50.515493" lon="6.251719">
        <ele>546.647000</ele>
        <time>2009-04-26T19:10:45Z</time>
      </trkpt>
      <trkpt lat="50.515487" lon="6.251676">
        <ele>547.127000</ele>
        <time>2009-04-26T19:10:48Z</time>
      </trkpt>
      <trkpt lat="50.515486" lon="6.251641">
        <ele>545.686000</ele>
        <time>2009-04-26T19:10:51Z</time>
      </trkpt>
      <trkpt lat="50.515499" lon="6.251617">
        <ele>545.686000</ele>
        <time>2009-04-26T19:10:53Z</time>
      </trkpt>
      <trkpt lat="50.515500" lon="6.251514">
        <ele>546.166000</ele>
        <time>2009-04-26T19:11:00Z</time>
      </trkpt>
      <trkpt lat="50.515500" lon="6.251274">
        <ele>546.166000</ele>
        <time>2009-04-26T19:11:16Z</time>
      </trkpt>
      <trkpt lat="50.515521" lon="6.251043">
        <ele>546.647000</ele>
        <time>2009-04-26T19:11:31Z</time>
      </trkpt>
      <trkpt lat="50.515542" lon="6.250616">
        <ele>546.166000</ele>
        <time>2009-04-26T19:12:00Z</time>
      </trkpt>
      <trkpt lat="50.515513" lon="6.250172">
        <ele>545.686000</ele>
        <time>2009-04-26T19:12:30Z</time>
      </trkpt>
      <trkpt lat="50.515521" lon="6.249943">
        <ele>545.686000</ele>
        <time>2009-04-26T19:12:45Z</time>
      </trkpt>
      <trkpt lat="50.515532" lon="6.249925">
        <ele>546.166000</ele>
        <time>2009-04-26T19:12:47Z</time>
      </trkpt>
      <trkpt lat="50.515559" lon="6.249933">
        <ele>547.127000</ele>
        <time>2009-04-26T19:12:50Z</time>
      </trkpt>
      <trkpt lat="50.515550" lon="6.249949">
        <ele>546.647000</ele>
        <time>2009-04-26T19:12:51Z</time>
      </trkpt>
      <trkpt lat="50.515544" lon="6.249936">
        <ele>546.647000</ele>
        <time>2009-04-26T19:12:52Z</time>
      </trkpt>
      <trkpt lat="50.515571" lon="6.249932">
        <ele>546.166000</ele>
        <time>2009-04-26T19:12:55Z</time>
      </trkpt>
      <trkpt lat="50.515571" lon="6.249924">
        <ele>545.205000</ele>
        <time>2009-04-26T19:12:56Z</time>
      </trkpt>
      <trkpt lat="50.515565" lon="6.249921">
        <ele>545.205000</ele>
        <time>2009-04-26T19:12:56Z</time>
      </trkpt>
      <trkpt lat="50.515558" lon="6.249893">
        <ele>544.724000</ele>
        <time>2009-04-26T19:12:59Z</time>
      </trkpt>
      <trkpt lat="50.515570" lon="6.249932">
        <ele>544.244000</ele>
        <time>2009-04-26T19:13:01Z</time>
      </trkpt>
      <trkpt lat="50.515754" lon="6.249763">
        <ele>531.266000</ele>
        <time>2009-04-26T19:13:24Z</time>
      </trkpt>
      <trkpt lat="50.515851" lon="6.249690">
        <ele>534.150000</ele>
        <time>2009-04-26T19:13:35Z</time>
      </trkpt>
      <trkpt lat="50.515876" lon="6.249696">
        <ele>535.111000</ele>
        <time>2009-04-26T19:13:38Z</time>
      </trkpt>
      <trkpt lat="50.516015" lon="6.249732">
        <ele>536.072000</ele>
        <time>2009-04-26T19:13:53Z</time>
      </trkpt>
      <trkpt lat="50.516193" lon="6.249822">
        <ele>539.918000</ele>
        <time>2009-04-26T19:14:12Z</time>
      </trkpt>
      <trkpt lat="50.516366" lon="6.249915">
        <ele>541.840000</ele>
        <time>2009-04-26T19:14:32Z</time>
      </trkpt>
      <trkpt lat="50.516505" lon="6.249984">
        <ele>542.802000</ele>
        <time>2009-04-26T19:14:47Z</time>
      </trkpt>
      <trkpt lat="50.516594" lon="6.250038">
        <ele>542.802000</ele>
        <time>2009-04-26T19:14:57Z</time>
      </trkpt>
      <trkpt lat="50.516753" lon="6.250116">
        <ele>541.359000</ele>
        <time>2009-04-26T19:15:15Z</time>
      </trkpt>
      <trkpt lat="50.516986" lon="6.250257">
        <ele>539.437000</ele>
        <time>2009-04-26T19:15:41Z</time>
      </trkpt>
      <trkpt lat="50.517214" lon="6.250405">
        <ele>537.514000</ele>
        <time>2009-04-26T19:16:07Z</time>
      </trkpt>
      <trkpt lat="50.517432" lon="6.250581">
        <ele>535.592000</ele>
        <time>2009-04-26T19:16:33Z</time>
      </trkpt>
      <trkpt lat="50.517643" lon="6.250758">
        <ele>534.150000</ele>
        <time>2009-04-26T19:16:58Z</time>
      </trkpt>
      <trkpt lat="50.517766" lon="6.250855">
        <ele>532.708000</ele>
        <time>2009-04-26T19:17:12Z</time>
      </trkpt>
      <trkpt lat="50.517974" lon="6.251033">
        <ele>531.266000</ele>
        <time>2009-04-26T19:17:37Z</time>
      </trkpt>
      <trkpt lat="50.518201" lon="6.251236">
        <ele>530.785000</ele>
        <time>2009-04-26T19:18:05Z</time>
      </trkpt>
      <trkpt lat="50.518446" lon="6.251401">
        <ele>529.343000</ele>
        <time>2009-04-26T19:18:33Z</time>
      </trkpt>
      <trkpt lat="50.518705" lon="6.251544">
        <ele>527.420000</ele>
        <time>2009-04-26T19:19:02Z</time>
      </trkpt>
      <trkpt lat="50.518975" lon="6.251666">
        <ele>525.978000</ele>
        <time>2009-04-26T19:19:32Z</time>
      </trkpt>
      <trkpt lat="50.519185" lon="6.251745">
        <ele>524.056000</ele>
        <time>2009-04-26T19:19:54Z</time>
      </trkpt>
      <trkpt lat="50.519392" lon="6.251802">
        <ele>522.133000</ele>
        <time>2009-04-26T19:20:17Z</time>
      </trkpt>
      <trkpt lat="50.519592" lon="6.251832">
        <ele>519.730000</ele>
        <time>2009-04-26T19:20:38Z</time>
      </trkpt>
      <trkpt lat="50.519760" lon="6.251859">
        <ele>518.769000</ele>
        <time>2009-04-26T19:20:55Z</time>
      </trkpt>
      <trkpt lat="50.519920" lon="6.251892">
        <ele>517.327000</ele>
        <time>2009-04-26T19:21:13Z</time>
      </trkpt>
      <trkpt lat="50.520127" lon="6.251941">
        <ele>515.885000</ele>
        <time>2009-04-26T19:21:35Z</time>
      </trkpt>
      <trkpt lat="50.520295" lon="6.252000">
        <ele>514.443000</ele>
        <time>2009-04-26T19:21:53Z</time>
      </trkpt>
      <trkpt lat="50.520379" lon="6.252034">
        <ele>513.962000</ele>
        <time>2009-04-26T19:22:02Z</time>
      </trkpt>
      <trkpt lat="50.520434" lon="6.252061">
        <ele>513.481000</ele>
        <time>2009-04-26T19:22:08Z</time>
      </trkpt>
      <trkpt lat="50.520489" lon="6.252080">
        <ele>513.001000</ele>
        <time>2009-04-26T19:22:14Z</time>
      </trkpt>
      <trkpt lat="50.520610" lon="6.252148">
        <ele>512.039000</ele>
        <time>2009-04-26T19:22:27Z</time>
      </trkpt>
      <trkpt lat="50.520782" lon="6.252238">
        <ele>511.078000</ele>
        <time>2009-04-26T19:22:47Z</time>
      </trkpt>
      <trkpt lat="50.521010" lon="6.252378">
        <ele>508.675000</ele>
        <time>2009-04-26T19:23:12Z</time>
      </trkpt>
      <trkpt lat="50.521175" lon="6.252524">
        <ele>508.194000</ele>
        <time>2009-04-26T19:23:32Z</time>
      </trkpt>
      <trkpt lat="50.521290" lon="6.252613">
        <ele>506.752000</ele>
        <time>2009-04-26T19:23:46Z</time>
      </trkpt>
      <trkpt lat="50.521415" lon="6.252723">
        <ele>505.310000</ele>
        <time>2009-04-26T19:24:01Z</time>
      </trkpt>
      <trkpt lat="50.521610" lon="6.252864">
        <ele>503.387000</ele>
        <time>2009-04-26T19:24:24Z</time>
      </trkpt>
      <trkpt lat="50.521793" lon="6.253025">
        <ele>500.023000</ele>
        <time>2009-04-26T19:24:46Z</time>
      </trkpt>
      <trkpt lat="50.521941" lon="6.253147">
        <ele>500.023000</ele>
        <time>2009-04-26T19:25:03Z</time>
      </trkpt>
      <trkpt lat="50.522106" lon="6.253317">
        <ele>498.581000</ele>
        <time>2009-04-26T19:25:24Z</time>
      </trkpt>
      <trkpt lat="50.522115" lon="6.253325">
        <ele>498.100000</ele>
        <time>2009-04-26T19:25:25Z</time>
      </trkpt>
      <trkpt lat="50.522252" lon="6.253483">
        <ele>496.658000</ele>
        <time>2009-04-26T19:25:43Z</time>
      </trkpt>
      <trkpt lat="50.522303" lon="6.253621">
        <ele>496.658000</ele>
        <time>2009-04-26T19:25:54Z</time>
      </trkpt>
      <trkpt lat="50.522426" lon="6.253728">
        <ele>495.216000</ele>
        <time>2009-04-26T19:26:09Z</time>
      </trkpt>
      <trkpt lat="50.522460" lon="6.253770">
        <ele>494.736000</ele>
        <time>2009-04-26T19:26:13Z</time>
      </trkpt>
      <trkpt lat="50.522540" lon="6.253914">
        <ele>491.852000</ele>
        <time>2009-04-26T19:26:26Z</time>
      </trkpt>
      <trkpt lat="50.522549" lon="6.253931">
        <ele>495.216000</ele>
        <time>2009-04-26T19:26:27Z</time>
      </trkpt>
      <trkpt lat="50.522676" lon="6.254154">
        <ele>491.371000</ele>
        <time>2009-04-26T19:26:47Z</time>
      </trkpt>
      <trkpt lat="50.522802" lon="6.254331">
        <ele>490.410000</ele>
        <time>2009-04-26T19:27:05Z</time>
      </trkpt>
      <trkpt lat="50.522853" lon="6.254419">
        <ele>489.448000</ele>
        <time>2009-04-26T19:27:13Z</time>
      </trkpt>
      <trkpt lat="50.522999" lon="6.254670">
        <ele>486.564000</ele>
        <time>2009-04-26T19:27:36Z</time>
      </trkpt>
      <trkpt lat="50.523045" lon="6.254747">
        <ele>485.603000</ele>
        <time>2009-04-26T19:27:43Z</time>
      </trkpt>
      <trkpt lat="50.523120" lon="6.254891">
        <ele>485.122000</ele>
        <time>2009-04-26T19:27:56Z</time>
      </trkpt>
      <trkpt lat="50.523217" lon="6.255032">
        <ele>484.161000</ele>
        <time>2009-04-26T19:28:10Z</time>
      </trkpt>
      <trkpt lat="50.523247" lon="6.255105">
        <ele>484.161000</ele>
        <time>2009-04-26T19:28:15Z</time>
      </trkpt>
      <trkpt lat="50.523317" lon="6.255364">
        <ele>482.719000</ele>
        <time>2009-04-26T19:28:34Z</time>
      </trkpt>
      <trkpt lat="50.523336" lon="6.255663">
        <ele>481.758000</ele>
        <time>2009-04-26T19:28:54Z</time>
      </trkpt>
      <trkpt lat="50.523318" lon="6.255987">
        <ele>481.758000</ele>
        <time>2009-04-26T19:29:16Z</time>
      </trkpt>
      <trkpt lat="50.523316" lon="6.256296">
        <ele>481.758000</ele>
        <time>2009-04-26T19:29:37Z</time>
      </trkpt>
      <trkpt lat="50.523364" lon="6.256571">
        <ele>481.758000</ele>
        <time>2009-04-26T19:29:56Z</time>
      </trkpt>
      <trkpt lat="50.523469" lon="6.256494">
        <ele>481.277000</ele>
        <time>2009-04-26T19:30:08Z</time>
      </trkpt>
      <trkpt lat="50.523486" lon="6.256468">
        <ele>480.797000</ele>
        <time>2009-04-26T19:30:11Z</time>
      </trkpt>
      <trkpt lat="50.523599" lon="6.256416">
        <ele>480.316000</ele>
        <time>2009-04-26T19:30:23Z</time>
      </trkpt>
      <trkpt lat="50.523652" lon="6.256387">
        <ele>479.354000</ele>
        <time>2009-04-26T19:30:29Z</time>
      </trkpt>
      <trkpt lat="50.523782" lon="6.256476">
        <ele>479.354000</ele>
        <time>2009-04-26T19:30:44Z</time>
      </trkpt>
      <trkpt lat="50.523881" lon="6.256631">
        <ele>479.354000</ele>
        <time>2009-04-26T19:30:59Z</time>
      </trkpt>
      <trkpt lat="50.523987" lon="6.256689">
        <ele>478.874000</ele>
        <time>2009-04-26T19:31:11Z</time>
      </trkpt>
      <trkpt lat="50.524121" lon="6.256763">
        <ele>479.835000</ele>
        <time>2009-04-26T19:31:26Z</time>
      </trkpt>
      <trkpt lat="50.524246" lon="6.256789">
        <ele>479.835000</ele>
        <time>2009-04-26T19:31:39Z</time>
      </trkpt>
      <trkpt lat="50.524385" lon="6.256778">
        <ele>478.874000</ele>
        <time>2009-04-26T19:31:53Z</time>
      </trkpt>
      <trkpt lat="50.524499" lon="6.256762">
        <ele>479.354000</ele>
        <time>2009-04-26T19:32:06Z</time>
      </trkpt>
      <trkpt lat="50.524603" lon="6.256743">
        <ele>479.354000</ele>
        <time>2009-04-26T19:32:17Z</time>
      </trkpt>
      <trkpt lat="50.524706" lon="6.256710">
        <ele>478.393000</ele>
        <time>2009-04-26T19:32:28Z</time>
      </trkpt>
      <trkpt lat="50.524845" lon="6.256689">
        <ele>478.393000</ele>
        <time>2009-04-26T19:32:42Z</time>
      </trkpt>
      <trkpt lat="50.524930" lon="6.256685">
        <ele>478.393000</ele>
        <time>2009-04-26T19:32:51Z</time>
      </trkpt>
      <trkpt lat="50.525081" lon="6.256673">
        <ele>477.912000</ele>
        <time>2009-04-26T19:33:07Z</time>
      </trkpt>
      <trkpt lat="50.525250" lon="6.256673">
        <ele>477.432000</ele>
        <time>2009-04-26T19:33:25Z</time>
      </trkpt>
      <trkpt lat="50.525381" lon="6.256629">
        <ele>477.912000</ele>
        <time>2009-04-26T19:33:39Z</time>
      </trkpt>
      <trkpt lat="50.525567" lon="6.256695">
        <ele>477.912000</ele>
        <time>2009-04-26T19:33:59Z</time>
      </trkpt>
      <trkpt lat="50.525696" lon="6.256722">
        <ele>478.393000</ele>
        <time>2009-04-26T19:34:13Z</time>
      </trkpt>
      <trkpt lat="50.525836" lon="6.256758">
        <ele>477.912000</ele>
        <time>2009-04-26T19:34:28Z</time>
      </trkpt>
      <trkpt lat="50.526000" lon="6.256748">
        <ele>478.874000</ele>
        <time>2009-04-26T19:34:45Z</time>
      </trkpt>
      <trkpt lat="50.526143" lon="6.256672">
        <ele>479.354000</ele>
        <time>2009-04-26T19:35:01Z</time>
      </trkpt>
      <trkpt lat="50.526175" lon="6.256613">
        <ele>479.835000</ele>
        <time>2009-04-26T19:35:06Z</time>
      </trkpt>
      <trkpt lat="50.526206" lon="6.256465">
        <ele>481.758000</ele>
        <time>2009-04-26T19:35:17Z</time>
      </trkpt>
      <trkpt lat="50.526260" lon="6.256425">
        <ele>480.316000</ele>
        <time>2009-04-26T19:35:23Z</time>
      </trkpt>
      <trkpt lat="50.526391" lon="6.256338">
        <ele>481.758000</ele>
        <time>2009-04-26T19:35:38Z</time>
      </trkpt>
      <trkpt lat="50.526510" lon="6.256297">
        <ele>483.200000</ele>
        <time>2009-04-26T19:35:51Z</time>
      </trkpt>
      <trkpt lat="50.526520" lon="6.256302">
        <ele>483.200000</ele>
        <time>2009-04-26T19:35:52Z</time>
      </trkpt>
      <trkpt lat="50.526651" lon="6.256411">
        <ele>484.642000</ele>
        <time>2009-04-26T19:36:08Z</time>
      </trkpt>
      <trkpt lat="50.526739" lon="6.256489">
        <ele>486.084000</ele>
        <time>2009-04-26T19:36:18Z</time>
      </trkpt>
      <trkpt lat="50.526731" lon="6.256406">
        <ele>485.122000</ele>
        <time>2009-04-26T19:36:24Z</time>
      </trkpt>
      <trkpt lat="50.526743" lon="6.256339">
        <ele>486.564000</ele>
        <time>2009-04-26T19:36:29Z</time>
      </trkpt>
      <trkpt lat="50.526731" lon="6.256360">
        <ele>486.564000</ele>
        <time>2009-04-26T19:36:31Z</time>
      </trkpt>
      <trkpt lat="50.526749" lon="6.256347">
        <ele>487.045000</ele>
        <time>2009-04-26T19:36:33Z</time>
      </trkpt>
    </trkseg>
  </trk>

</gpx>
